<?xml version="1.0" encoding="UTF-8" standalone="no" ?>
<gpx xmlns="http://www.topografix.com/GPX/1/1" xmlns:xsi="http://www.w3.org/2001/XMLSchema-instance" xsi:schemaLocation="http://www.topografix.com/GPX/1/1 http://www.topografix.com/GPX/1/1/gpx.xsd" version="1.1" creator="VisuGPX - https://www.visugpx.com">
  <metadata>
    <name>2019-10-10-46-St Cernin</name>
    <desc><![CDATA[Randonnée de 11,5km pour 250m de dénivelé positif. De beaux paysages et de beaux villages a traverser sur ce circuit]]></desc>
  </metadata>
  <trk>
    <name><![CDATA[St Cernin Marche gourmande 2019]]></name>
    <trkseg>
      <trkpt lat="44.59393" lon="1.58265">
        <ele>371</ele>
        <time>2019-07-05T16:05:25Z</time>
      </trkpt>
      <trkpt lat="44.59394" lon="1.58263">
        <ele>371</ele>
        <time>2019-07-05T16:05:49Z</time>
      </trkpt>
      <trkpt lat="44.59393" lon="1.58264">
        <ele>370</ele>
        <time>2019-07-05T16:06:12Z</time>
      </trkpt>
      <trkpt lat="44.59394" lon="1.58265">
        <ele>371</ele>
        <time>2019-07-05T16:06:32Z</time>
      </trkpt>
      <trkpt lat="44.59392" lon="1.58268">
        <ele>373</ele>
        <time>2019-07-05T16:07:02Z</time>
      </trkpt>
      <trkpt lat="44.59392" lon="1.58269">
        <ele>372</ele>
        <time>2019-07-05T16:07:19Z</time>
      </trkpt>
      <trkpt lat="44.59393" lon="1.58267">
        <ele>372</ele>
        <time>2019-07-05T16:07:34Z</time>
      </trkpt>
      <trkpt lat="44.59389" lon="1.58265">
        <ele>368</ele>
        <time>2019-07-05T16:07:52Z</time>
      </trkpt>
      <trkpt lat="44.59387" lon="1.58268">
        <ele>366</ele>
        <time>2019-07-05T16:08:10Z</time>
      </trkpt>
      <trkpt lat="44.59386" lon="1.58267">
        <ele>366</ele>
        <time>2019-07-05T16:08:27Z</time>
      </trkpt>
      <trkpt lat="44.59386" lon="1.58266">
        <ele>367</ele>
        <time>2019-07-05T16:08:41Z</time>
      </trkpt>
      <trkpt lat="44.59383" lon="1.58264">
        <ele>367</ele>
        <time>2019-07-05T16:09:01Z</time>
      </trkpt>
      <trkpt lat="44.59378" lon="1.58275">
        <ele>364</ele>
        <time>2019-07-05T16:09:15Z</time>
      </trkpt>
      <trkpt lat="44.59373" lon="1.58279">
        <ele>359</ele>
        <time>2019-07-05T16:09:32Z</time>
      </trkpt>
      <trkpt lat="44.59372" lon="1.58282">
        <ele>359</ele>
        <time>2019-07-05T16:09:35Z</time>
      </trkpt>
      <trkpt lat="44.59366" lon="1.58294">
        <ele>357</ele>
        <time>2019-07-05T16:09:48Z</time>
      </trkpt>
      <trkpt lat="44.59369" lon="1.58297">
        <ele>360</ele>
        <time>2019-07-05T16:09:58Z</time>
      </trkpt>
      <trkpt lat="44.59377" lon="1.5828">
        <ele>362</ele>
        <time>2019-07-05T16:10:13Z</time>
      </trkpt>
      <trkpt lat="44.59386" lon="1.58272">
        <ele>362</ele>
        <time>2019-07-05T16:10:24Z</time>
      </trkpt>
      <trkpt lat="44.59388" lon="1.58267">
        <ele>364</ele>
        <time>2019-07-05T16:10:37Z</time>
      </trkpt>
      <trkpt lat="44.59387" lon="1.58262">
        <ele>363</ele>
        <time>2019-07-05T16:10:51Z</time>
      </trkpt>
      <trkpt lat="44.59387" lon="1.58265">
        <ele>363</ele>
        <time>2019-07-05T16:11:03Z</time>
      </trkpt>
      <trkpt lat="44.5939" lon="1.58265">
        <ele>365</ele>
        <time>2019-07-05T16:11:19Z</time>
      </trkpt>
      <trkpt lat="44.59385" lon="1.58264">
        <ele>361</ele>
        <time>2019-07-05T16:11:40Z</time>
      </trkpt>
      <trkpt lat="44.59384" lon="1.58266">
        <ele>359</ele>
        <time>2019-07-05T16:12:10Z</time>
      </trkpt>
      <trkpt lat="44.59388" lon="1.58267">
        <ele>361</ele>
        <time>2019-07-05T16:12:34Z</time>
      </trkpt>
      <trkpt lat="44.59387" lon="1.58267">
        <ele>362</ele>
        <time>2019-07-05T16:12:49Z</time>
      </trkpt>
      <trkpt lat="44.59387" lon="1.58266">
        <ele>365</ele>
        <time>2019-07-05T16:13:14Z</time>
      </trkpt>
      <trkpt lat="44.59387" lon="1.58269">
        <ele>365</ele>
        <time>2019-07-05T16:13:51Z</time>
      </trkpt>
      <trkpt lat="44.5939" lon="1.58268">
        <ele>367</ele>
        <time>2019-07-05T16:14:08Z</time>
      </trkpt>
      <trkpt lat="44.59389" lon="1.58266">
        <ele>366</ele>
        <time>2019-07-05T16:14:22Z</time>
      </trkpt>
      <trkpt lat="44.5939" lon="1.58266">
        <ele>367</ele>
        <time>2019-07-05T16:14:34Z</time>
      </trkpt>
      <trkpt lat="44.59389" lon="1.58266">
        <ele>369</ele>
        <time>2019-07-05T16:15:01Z</time>
      </trkpt>
      <trkpt lat="44.59388" lon="1.58267">
        <ele>368</ele>
        <time>2019-07-05T16:15:19Z</time>
      </trkpt>
      <trkpt lat="44.59386" lon="1.58266">
        <ele>369</ele>
        <time>2019-07-05T16:15:42Z</time>
      </trkpt>
      <trkpt lat="44.59389" lon="1.58267">
        <ele>366</ele>
        <time>2019-07-05T16:16:08Z</time>
      </trkpt>
      <trkpt lat="44.59388" lon="1.58266">
        <ele>368</ele>
        <time>2019-07-05T16:16:23Z</time>
      </trkpt>
      <trkpt lat="44.59388" lon="1.5827">
        <ele>371</ele>
        <time>2019-07-05T16:16:42Z</time>
      </trkpt>
      <trkpt lat="44.59387" lon="1.5827">
        <ele>368</ele>
        <time>2019-07-05T16:16:54Z</time>
      </trkpt>
      <trkpt lat="44.59385" lon="1.58277">
        <ele>369</ele>
        <time>2019-07-05T16:17:06Z</time>
      </trkpt>
      <trkpt lat="44.59386" lon="1.58283">
        <ele>369</ele>
        <time>2019-07-05T16:17:11Z</time>
      </trkpt>
      <trkpt lat="44.5939" lon="1.58297">
        <ele>375</ele>
        <time>2019-07-05T16:17:25Z</time>
      </trkpt>
      <trkpt lat="44.59392" lon="1.58299">
        <ele>374</ele>
        <time>2019-07-05T16:17:43Z</time>
      </trkpt>
      <trkpt lat="44.59393" lon="1.58296">
        <ele>373</ele>
        <time>2019-07-05T16:18:01Z</time>
      </trkpt>
      <trkpt lat="44.59401" lon="1.5829">
        <ele>371</ele>
        <time>2019-07-05T16:18:14Z</time>
      </trkpt>
      <trkpt lat="44.59398" lon="1.58286">
        <ele>370</ele>
        <time>2019-07-05T16:18:30Z</time>
      </trkpt>
      <trkpt lat="44.59397" lon="1.58288">
        <ele>370</ele>
        <time>2019-07-05T16:18:50Z</time>
      </trkpt>
      <trkpt lat="44.59398" lon="1.58288">
        <ele>375</ele>
        <time>2019-07-05T16:19:02Z</time>
      </trkpt>
      <trkpt lat="44.594" lon="1.58289">
        <ele>375</ele>
        <time>2019-07-05T16:19:23Z</time>
      </trkpt>
      <trkpt lat="44.59401" lon="1.58289">
        <ele>375</ele>
        <time>2019-07-05T16:19:37Z</time>
      </trkpt>
      <trkpt lat="44.59401" lon="1.58289">
        <ele>375</ele>
        <time>2019-07-05T16:19:54Z</time>
      </trkpt>
      <trkpt lat="44.59401" lon="1.5829">
        <ele>376</ele>
        <time>2019-07-05T16:20:19Z</time>
      </trkpt>
      <trkpt lat="44.59402" lon="1.58291">
        <ele>374</ele>
        <time>2019-07-05T16:20:34Z</time>
      </trkpt>
      <trkpt lat="44.59401" lon="1.58291">
        <ele>374</ele>
        <time>2019-07-05T16:20:49Z</time>
      </trkpt>
      <trkpt lat="44.59401" lon="1.58291">
        <ele>374</ele>
        <time>2019-07-05T16:21:06Z</time>
      </trkpt>
      <trkpt lat="44.59401" lon="1.58289">
        <ele>374</ele>
        <time>2019-07-05T16:21:17Z</time>
      </trkpt>
      <trkpt lat="44.59402" lon="1.5829">
        <ele>372</ele>
        <time>2019-07-05T16:21:32Z</time>
      </trkpt>
      <trkpt lat="44.59402" lon="1.5829">
        <ele>372</ele>
        <time>2019-07-05T16:21:43Z</time>
      </trkpt>
      <trkpt lat="44.59402" lon="1.58291">
        <ele>372</ele>
        <time>2019-07-05T16:22:06Z</time>
      </trkpt>
      <trkpt lat="44.594" lon="1.58288">
        <ele>372</ele>
        <time>2019-07-05T16:22:19Z</time>
      </trkpt>
      <trkpt lat="44.59401" lon="1.5829">
        <ele>372</ele>
        <time>2019-07-05T16:22:29Z</time>
      </trkpt>
      <trkpt lat="44.594" lon="1.5829">
        <ele>372</ele>
        <time>2019-07-05T16:22:44Z</time>
      </trkpt>
      <trkpt lat="44.59405" lon="1.58293">
        <ele>373</ele>
        <time>2019-07-05T16:22:56Z</time>
      </trkpt>
      <trkpt lat="44.59407" lon="1.58293">
        <ele>372</ele>
        <time>2019-07-05T16:22:58Z</time>
      </trkpt>
      <trkpt lat="44.59409" lon="1.58283">
        <ele>371</ele>
        <time>2019-07-05T16:23:06Z</time>
      </trkpt>
      <trkpt lat="44.594" lon="1.58273">
        <ele>372</ele>
        <time>2019-07-05T16:23:20Z</time>
      </trkpt>
      <trkpt lat="44.59396" lon="1.5827">
        <ele>372</ele>
        <time>2019-07-05T16:23:25Z</time>
      </trkpt>
      <trkpt lat="44.59391" lon="1.58265">
        <ele>371</ele>
        <time>2019-07-05T16:23:36Z</time>
      </trkpt>
      <trkpt lat="44.59389" lon="1.58263">
        <ele>371</ele>
        <time>2019-07-05T16:23:39Z</time>
      </trkpt>
      <trkpt lat="44.59379" lon="1.58258">
        <ele>371</ele>
        <time>2019-07-05T16:23:50Z</time>
      </trkpt>
      <trkpt lat="44.59367" lon="1.58244">
        <ele>369</ele>
        <time>2019-07-05T16:24:05Z</time>
      </trkpt>
      <trkpt lat="44.5935" lon="1.5823">
        <ele>368</ele>
        <time>2019-07-05T16:24:22Z</time>
      </trkpt>
      <trkpt lat="44.59338" lon="1.58221">
        <ele>365</ele>
        <time>2019-07-05T16:24:37Z</time>
      </trkpt>
      <trkpt lat="44.59329" lon="1.58215">
        <ele>362</ele>
        <time>2019-07-05T16:24:49Z</time>
      </trkpt>
      <trkpt lat="44.59311" lon="1.58216">
        <ele>360</ele>
        <time>2019-07-05T16:25:06Z</time>
      </trkpt>
      <trkpt lat="44.59294" lon="1.58218">
        <ele>361</ele>
        <time>2019-07-05T16:25:22Z</time>
      </trkpt>
      <trkpt lat="44.59278" lon="1.58213">
        <ele>360</ele>
        <time>2019-07-05T16:25:38Z</time>
      </trkpt>
      <trkpt lat="44.59261" lon="1.58208">
        <ele>360</ele>
        <time>2019-07-05T16:25:53Z</time>
      </trkpt>
      <trkpt lat="44.59246" lon="1.582">
        <ele>355</ele>
        <time>2019-07-05T16:26:08Z</time>
      </trkpt>
      <trkpt lat="44.59226" lon="1.582">
        <ele>361</ele>
        <time>2019-07-05T16:26:23Z</time>
      </trkpt>
      <trkpt lat="44.59216" lon="1.58204">
        <ele>363</ele>
        <time>2019-07-05T16:26:31Z</time>
      </trkpt>
      <trkpt lat="44.59212" lon="1.58208">
        <ele>363</ele>
        <time>2019-07-05T16:26:35Z</time>
      </trkpt>
      <trkpt lat="44.59202" lon="1.58212">
        <ele>357</ele>
        <time>2019-07-05T16:26:48Z</time>
      </trkpt>
      <trkpt lat="44.59194" lon="1.58218">
        <ele>356</ele>
        <time>2019-07-05T16:26:57Z</time>
      </trkpt>
      <trkpt lat="44.59174" lon="1.58228">
        <ele>360</ele>
        <time>2019-07-05T16:27:12Z</time>
      </trkpt>
      <trkpt lat="44.59165" lon="1.58226">
        <ele>359</ele>
        <time>2019-07-05T16:27:21Z</time>
      </trkpt>
      <trkpt lat="44.59143" lon="1.58211">
        <ele>364</ele>
        <time>2019-07-05T16:27:39Z</time>
      </trkpt>
      <trkpt lat="44.59132" lon="1.58199">
        <ele>365</ele>
        <time>2019-07-05T16:27:52Z</time>
      </trkpt>
      <trkpt lat="44.59127" lon="1.58193">
        <ele>365</ele>
        <time>2019-07-05T16:27:58Z</time>
      </trkpt>
      <trkpt lat="44.59105" lon="1.58185">
        <ele>367</ele>
        <time>2019-07-05T16:28:15Z</time>
      </trkpt>
      <trkpt lat="44.59086" lon="1.5818">
        <ele>370</ele>
        <time>2019-07-05T16:28:31Z</time>
      </trkpt>
      <trkpt lat="44.59079" lon="1.5818">
        <ele>371</ele>
        <time>2019-07-05T16:28:37Z</time>
      </trkpt>
      <trkpt lat="44.59056" lon="1.58175">
        <ele>374</ele>
        <time>2019-07-05T16:28:56Z</time>
      </trkpt>
      <trkpt lat="44.59041" lon="1.58173">
        <ele>376</ele>
        <time>2019-07-05T16:29:07Z</time>
      </trkpt>
      <trkpt lat="44.59025" lon="1.58167">
        <ele>376</ele>
        <time>2019-07-05T16:29:21Z</time>
      </trkpt>
      <trkpt lat="44.59007" lon="1.58148">
        <ele>372</ele>
        <time>2019-07-05T16:29:41Z</time>
      </trkpt>
      <trkpt lat="44.58988" lon="1.5813">
        <ele>371</ele>
        <time>2019-07-05T16:29:59Z</time>
      </trkpt>
      <trkpt lat="44.58967" lon="1.58111">
        <ele>372</ele>
        <time>2019-07-05T16:30:18Z</time>
      </trkpt>
      <trkpt lat="44.58949" lon="1.58096">
        <ele>372</ele>
        <time>2019-07-05T16:30:34Z</time>
      </trkpt>
      <trkpt lat="44.58934" lon="1.58074">
        <ele>371</ele>
        <time>2019-07-05T16:30:52Z</time>
      </trkpt>
      <trkpt lat="44.58922" lon="1.58056">
        <ele>371</ele>
        <time>2019-07-05T16:31:07Z</time>
      </trkpt>
      <trkpt lat="44.58909" lon="1.58035">
        <ele>370</ele>
        <time>2019-07-05T16:31:22Z</time>
      </trkpt>
      <trkpt lat="44.58891" lon="1.58009">
        <ele>369</ele>
        <time>2019-07-05T16:31:42Z</time>
      </trkpt>
      <trkpt lat="44.58871" lon="1.57993">
        <ele>368</ele>
        <time>2019-07-05T16:31:59Z</time>
      </trkpt>
      <trkpt lat="44.58853" lon="1.57982">
        <ele>368</ele>
        <time>2019-07-05T16:32:14Z</time>
      </trkpt>
      <trkpt lat="44.58835" lon="1.57967">
        <ele>370</ele>
        <time>2019-07-05T16:32:31Z</time>
      </trkpt>
      <trkpt lat="44.58817" lon="1.57956">
        <ele>367</ele>
        <time>2019-07-05T16:32:48Z</time>
      </trkpt>
      <trkpt lat="44.588" lon="1.57942">
        <ele>365</ele>
        <time>2019-07-05T16:33:05Z</time>
      </trkpt>
      <trkpt lat="44.58778" lon="1.57925">
        <ele>368</ele>
        <time>2019-07-05T16:33:26Z</time>
      </trkpt>
      <trkpt lat="44.58762" lon="1.57911">
        <ele>368</ele>
        <time>2019-07-05T16:33:41Z</time>
      </trkpt>
      <trkpt lat="44.58741" lon="1.57893">
        <ele>369</ele>
        <time>2019-07-05T16:33:59Z</time>
      </trkpt>
      <trkpt lat="44.5873" lon="1.57869">
        <ele>370</ele>
        <time>2019-07-05T16:34:16Z</time>
      </trkpt>
      <trkpt lat="44.58717" lon="1.57844">
        <ele>369</ele>
        <time>2019-07-05T16:34:34Z</time>
      </trkpt>
      <trkpt lat="44.58699" lon="1.57822">
        <ele>370</ele>
        <time>2019-07-05T16:34:54Z</time>
      </trkpt>
      <trkpt lat="44.5868" lon="1.57804">
        <ele>371</ele>
        <time>2019-07-05T16:35:12Z</time>
      </trkpt>
      <trkpt lat="44.58667" lon="1.57792">
        <ele>368</ele>
        <time>2019-07-05T16:35:27Z</time>
      </trkpt>
      <trkpt lat="44.58652" lon="1.57774">
        <ele>367</ele>
        <time>2019-07-05T16:35:44Z</time>
      </trkpt>
      <trkpt lat="44.58639" lon="1.57761">
        <ele>367</ele>
        <time>2019-07-05T16:35:58Z</time>
      </trkpt>
      <trkpt lat="44.58622" lon="1.57751">
        <ele>370</ele>
        <time>2019-07-05T16:36:14Z</time>
      </trkpt>
      <trkpt lat="44.58601" lon="1.57743">
        <ele>369</ele>
        <time>2019-07-05T16:36:30Z</time>
      </trkpt>
      <trkpt lat="44.58581" lon="1.57734">
        <ele>371</ele>
        <time>2019-07-05T16:36:47Z</time>
      </trkpt>
      <trkpt lat="44.58561" lon="1.57728">
        <ele>370</ele>
        <time>2019-07-05T16:37:04Z</time>
      </trkpt>
      <trkpt lat="44.58539" lon="1.57721">
        <ele>370</ele>
        <time>2019-07-05T16:37:24Z</time>
      </trkpt>
      <trkpt lat="44.58521" lon="1.5771">
        <ele>372</ele>
        <time>2019-07-05T16:37:39Z</time>
      </trkpt>
      <trkpt lat="44.58505" lon="1.57696">
        <ele>373</ele>
        <time>2019-07-05T16:37:54Z</time>
      </trkpt>
      <trkpt lat="44.58492" lon="1.5768">
        <ele>373</ele>
        <time>2019-07-05T16:38:08Z</time>
      </trkpt>
      <trkpt lat="44.58476" lon="1.57663">
        <ele>372</ele>
        <time>2019-07-05T16:38:24Z</time>
      </trkpt>
      <trkpt lat="44.58459" lon="1.57645">
        <ele>373</ele>
        <time>2019-07-05T16:38:43Z</time>
      </trkpt>
      <trkpt lat="44.5845" lon="1.57637">
        <ele>373</ele>
        <time>2019-07-05T16:38:54Z</time>
      </trkpt>
      <trkpt lat="44.58448" lon="1.57635">
        <ele>373</ele>
        <time>2019-07-05T16:38:56Z</time>
      </trkpt>
      <trkpt lat="44.58444" lon="1.57631">
        <ele>373</ele>
        <time>2019-07-05T16:39:00Z</time>
      </trkpt>
      <trkpt lat="44.58428" lon="1.57618">
        <ele>372</ele>
        <time>2019-07-05T16:39:16Z</time>
      </trkpt>
      <trkpt lat="44.58418" lon="1.57606">
        <ele>371</ele>
        <time>2019-07-05T16:39:33Z</time>
      </trkpt>
      <trkpt lat="44.58411" lon="1.57601">
        <ele>370</ele>
        <time>2019-07-05T16:39:50Z</time>
      </trkpt>
      <trkpt lat="44.5841" lon="1.57602">
        <ele>373</ele>
        <time>2019-07-05T16:40:13Z</time>
      </trkpt>
      <trkpt lat="44.58409" lon="1.57603">
        <ele>374</ele>
        <time>2019-07-05T16:40:39Z</time>
      </trkpt>
      <trkpt lat="44.5841" lon="1.57605">
        <ele>376</ele>
        <time>2019-07-05T16:40:54Z</time>
      </trkpt>
      <trkpt lat="44.58411" lon="1.57603">
        <ele>376</ele>
        <time>2019-07-05T16:41:21Z</time>
      </trkpt>
      <trkpt lat="44.58408" lon="1.57599">
        <ele>376</ele>
        <time>2019-07-05T16:41:37Z</time>
      </trkpt>
      <trkpt lat="44.58397" lon="1.57587">
        <ele>372</ele>
        <time>2019-07-05T16:41:53Z</time>
      </trkpt>
      <trkpt lat="44.58386" lon="1.57574">
        <ele>369</ele>
        <time>2019-07-05T16:42:09Z</time>
      </trkpt>
      <trkpt lat="44.58375" lon="1.5756">
        <ele>368</ele>
        <time>2019-07-05T16:42:23Z</time>
      </trkpt>
      <trkpt lat="44.58374" lon="1.57558">
        <ele>369</ele>
        <time>2019-07-05T16:42:25Z</time>
      </trkpt>
      <trkpt lat="44.58366" lon="1.57536">
        <ele>368</ele>
        <time>2019-07-05T16:42:42Z</time>
      </trkpt>
      <trkpt lat="44.58362" lon="1.57511">
        <ele>367</ele>
        <time>2019-07-05T16:42:58Z</time>
      </trkpt>
      <trkpt lat="44.58359" lon="1.57498">
        <ele>366</ele>
        <time>2019-07-05T16:43:07Z</time>
      </trkpt>
      <trkpt lat="44.58348" lon="1.57473">
        <ele>364</ele>
        <time>2019-07-05T16:43:25Z</time>
      </trkpt>
      <trkpt lat="44.58339" lon="1.57445">
        <ele>363</ele>
        <time>2019-07-05T16:43:41Z</time>
      </trkpt>
      <trkpt lat="44.58334" lon="1.57423">
        <ele>362</ele>
        <time>2019-07-05T16:43:57Z</time>
      </trkpt>
      <trkpt lat="44.58334" lon="1.57405">
        <ele>364</ele>
        <time>2019-07-05T16:44:10Z</time>
      </trkpt>
      <trkpt lat="44.58337" lon="1.57377">
        <ele>365</ele>
        <time>2019-07-05T16:44:26Z</time>
      </trkpt>
      <trkpt lat="44.58334" lon="1.57355">
        <ele>362</ele>
        <time>2019-07-05T16:44:41Z</time>
      </trkpt>
      <trkpt lat="44.58338" lon="1.57329">
        <ele>363</ele>
        <time>2019-07-05T16:44:57Z</time>
      </trkpt>
      <trkpt lat="44.58346" lon="1.57307">
        <ele>362</ele>
        <time>2019-07-05T16:45:12Z</time>
      </trkpt>
      <trkpt lat="44.58349" lon="1.57298">
        <ele>361</ele>
        <time>2019-07-05T16:45:18Z</time>
      </trkpt>
      <trkpt lat="44.58357" lon="1.57272">
        <ele>362</ele>
        <time>2019-07-05T16:45:35Z</time>
      </trkpt>
      <trkpt lat="44.58361" lon="1.57249">
        <ele>361</ele>
        <time>2019-07-05T16:45:51Z</time>
      </trkpt>
      <trkpt lat="44.58365" lon="1.57226">
        <ele>359</ele>
        <time>2019-07-05T16:46:08Z</time>
      </trkpt>
      <trkpt lat="44.58373" lon="1.572">
        <ele>356</ele>
        <time>2019-07-05T16:46:24Z</time>
      </trkpt>
      <trkpt lat="44.58382" lon="1.57177">
        <ele>360</ele>
        <time>2019-07-05T16:46:38Z</time>
      </trkpt>
      <trkpt lat="44.58386" lon="1.57155">
        <ele>362</ele>
        <time>2019-07-05T16:46:52Z</time>
      </trkpt>
      <trkpt lat="44.5839" lon="1.57127">
        <ele>364</ele>
        <time>2019-07-05T16:47:08Z</time>
      </trkpt>
      <trkpt lat="44.5839" lon="1.57106">
        <ele>362</ele>
        <time>2019-07-05T16:47:22Z</time>
      </trkpt>
      <trkpt lat="44.58389" lon="1.5708">
        <ele>361</ele>
        <time>2019-07-05T16:47:35Z</time>
      </trkpt>
      <trkpt lat="44.58388" lon="1.57056">
        <ele>361</ele>
        <time>2019-07-05T16:47:51Z</time>
      </trkpt>
      <trkpt lat="44.58384" lon="1.57035">
        <ele>360</ele>
        <time>2019-07-05T16:48:07Z</time>
      </trkpt>
      <trkpt lat="44.58384" lon="1.57013">
        <ele>359</ele>
        <time>2019-07-05T16:48:21Z</time>
      </trkpt>
      <trkpt lat="44.58381" lon="1.57007">
        <ele>358</ele>
        <time>2019-07-05T16:48:38Z</time>
      </trkpt>
      <trkpt lat="44.58379" lon="1.57003">
        <ele>360</ele>
        <time>2019-07-05T16:48:55Z</time>
      </trkpt>
      <trkpt lat="44.58381" lon="1.57006">
        <ele>363</ele>
        <time>2019-07-05T16:49:12Z</time>
      </trkpt>
      <trkpt lat="44.58383" lon="1.57008">
        <ele>365</ele>
        <time>2019-07-05T16:49:32Z</time>
      </trkpt>
      <trkpt lat="44.58384" lon="1.57007">
        <ele>366</ele>
        <time>2019-07-05T16:49:57Z</time>
      </trkpt>
      <trkpt lat="44.58384" lon="1.57007">
        <ele>367</ele>
        <time>2019-07-05T16:50:17Z</time>
      </trkpt>
      <trkpt lat="44.58388" lon="1.57006">
        <ele>366</ele>
        <time>2019-07-05T16:50:43Z</time>
      </trkpt>
      <trkpt lat="44.58382" lon="1.57005">
        <ele>366</ele>
        <time>2019-07-05T16:50:58Z</time>
      </trkpt>
      <trkpt lat="44.5838" lon="1.57006">
        <ele>364</ele>
        <time>2019-07-05T16:51:13Z</time>
      </trkpt>
      <trkpt lat="44.58382" lon="1.57009">
        <ele>365</ele>
        <time>2019-07-05T16:51:33Z</time>
      </trkpt>
      <trkpt lat="44.58382" lon="1.57011">
        <ele>365</ele>
        <time>2019-07-05T16:51:55Z</time>
      </trkpt>
      <trkpt lat="44.58383" lon="1.57012">
        <ele>367</ele>
        <time>2019-07-05T16:52:14Z</time>
      </trkpt>
      <trkpt lat="44.58382" lon="1.57011">
        <ele>367</ele>
        <time>2019-07-05T16:52:35Z</time>
      </trkpt>
      <trkpt lat="44.58382" lon="1.5701">
        <ele>366</ele>
        <time>2019-07-05T16:52:51Z</time>
      </trkpt>
      <trkpt lat="44.58384" lon="1.5701">
        <ele>366</ele>
        <time>2019-07-05T16:53:13Z</time>
      </trkpt>
      <trkpt lat="44.58382" lon="1.57008">
        <ele>364</ele>
        <time>2019-07-05T16:53:30Z</time>
      </trkpt>
      <trkpt lat="44.58381" lon="1.57011">
        <ele>364</ele>
        <time>2019-07-05T16:53:56Z</time>
      </trkpt>
      <trkpt lat="44.58381" lon="1.57007">
        <ele>364</ele>
        <time>2019-07-05T16:54:15Z</time>
      </trkpt>
      <trkpt lat="44.58382" lon="1.57009">
        <ele>363</ele>
        <time>2019-07-05T16:54:36Z</time>
      </trkpt>
      <trkpt lat="44.58384" lon="1.57009">
        <ele>364</ele>
        <time>2019-07-05T16:54:56Z</time>
      </trkpt>
      <trkpt lat="44.58384" lon="1.57007">
        <ele>365</ele>
        <time>2019-07-05T16:55:20Z</time>
      </trkpt>
      <trkpt lat="44.58383" lon="1.57008">
        <ele>366</ele>
        <time>2019-07-05T16:55:42Z</time>
      </trkpt>
      <trkpt lat="44.58382" lon="1.57004">
        <ele>365</ele>
        <time>2019-07-05T16:55:58Z</time>
      </trkpt>
      <trkpt lat="44.58379" lon="1.56986">
        <ele>362</ele>
        <time>2019-07-05T16:56:16Z</time>
      </trkpt>
      <trkpt lat="44.58373" lon="1.56967">
        <ele>359</ele>
        <time>2019-07-05T16:56:31Z</time>
      </trkpt>
      <trkpt lat="44.58369" lon="1.56954">
        <ele>356</ele>
        <time>2019-07-05T16:56:43Z</time>
      </trkpt>
      <trkpt lat="44.58361" lon="1.5693">
        <ele>352</ele>
        <time>2019-07-05T16:57:01Z</time>
      </trkpt>
      <trkpt lat="44.5836" lon="1.56926">
        <ele>352</ele>
        <time>2019-07-05T16:57:04Z</time>
      </trkpt>
      <trkpt lat="44.58358" lon="1.56903">
        <ele>352</ele>
        <time>2019-07-05T16:57:18Z</time>
      </trkpt>
      <trkpt lat="44.58359" lon="1.56878">
        <ele>352</ele>
        <time>2019-07-05T16:57:34Z</time>
      </trkpt>
      <trkpt lat="44.58358" lon="1.56857">
        <ele>348</ele>
        <time>2019-07-05T16:57:49Z</time>
      </trkpt>
      <trkpt lat="44.58356" lon="1.56832">
        <ele>344</ele>
        <time>2019-07-05T16:58:06Z</time>
      </trkpt>
      <trkpt lat="44.58354" lon="1.56813">
        <ele>342</ele>
        <time>2019-07-05T16:58:21Z</time>
      </trkpt>
      <trkpt lat="44.58351" lon="1.56796">
        <ele>339</ele>
        <time>2019-07-05T16:58:35Z</time>
      </trkpt>
      <trkpt lat="44.58349" lon="1.56778">
        <ele>338</ele>
        <time>2019-07-05T16:58:52Z</time>
      </trkpt>
      <trkpt lat="44.58349" lon="1.56776">
        <ele>338</ele>
        <time>2019-07-05T16:58:54Z</time>
      </trkpt>
      <trkpt lat="44.58349" lon="1.56759">
        <ele>335</ele>
        <time>2019-07-05T16:59:06Z</time>
      </trkpt>
      <trkpt lat="44.58352" lon="1.5674">
        <ele>332</ele>
        <time>2019-07-05T16:59:21Z</time>
      </trkpt>
      <trkpt lat="44.58352" lon="1.56722">
        <ele>325</ele>
        <time>2019-07-05T16:59:35Z</time>
      </trkpt>
      <trkpt lat="44.58356" lon="1.56696">
        <ele>324</ele>
        <time>2019-07-05T16:59:53Z</time>
      </trkpt>
      <trkpt lat="44.58355" lon="1.56679">
        <ele>323</ele>
        <time>2019-07-05T17:00:07Z</time>
      </trkpt>
      <trkpt lat="44.58356" lon="1.56655">
        <ele>322</ele>
        <time>2019-07-05T17:00:23Z</time>
      </trkpt>
      <trkpt lat="44.58358" lon="1.56627">
        <ele>322</ele>
        <time>2019-07-05T17:00:41Z</time>
      </trkpt>
      <trkpt lat="44.58359" lon="1.56598">
        <ele>322</ele>
        <time>2019-07-05T17:01:00Z</time>
      </trkpt>
      <trkpt lat="44.58361" lon="1.56572">
        <ele>318</ele>
        <time>2019-07-05T17:01:18Z</time>
      </trkpt>
      <trkpt lat="44.58364" lon="1.56549">
        <ele>317</ele>
        <time>2019-07-05T17:01:35Z</time>
      </trkpt>
      <trkpt lat="44.58366" lon="1.5652">
        <ele>314</ele>
        <time>2019-07-05T17:01:53Z</time>
      </trkpt>
      <trkpt lat="44.58369" lon="1.56501">
        <ele>312</ele>
        <time>2019-07-05T17:02:07Z</time>
      </trkpt>
      <trkpt lat="44.58372" lon="1.56481">
        <ele>312</ele>
        <time>2019-07-05T17:02:23Z</time>
      </trkpt>
      <trkpt lat="44.58369" lon="1.56459">
        <ele>311</ele>
        <time>2019-07-05T17:02:39Z</time>
      </trkpt>
      <trkpt lat="44.58367" lon="1.56437">
        <ele>312</ele>
        <time>2019-07-05T17:02:55Z</time>
      </trkpt>
      <trkpt lat="44.58361" lon="1.56411">
        <ele>312</ele>
        <time>2019-07-05T17:03:13Z</time>
      </trkpt>
      <trkpt lat="44.5836" lon="1.56397">
        <ele>312</ele>
        <time>2019-07-05T17:03:26Z</time>
      </trkpt>
      <trkpt lat="44.58357" lon="1.56374">
        <ele>308</ele>
        <time>2019-07-05T17:03:43Z</time>
      </trkpt>
      <trkpt lat="44.58355" lon="1.5636">
        <ele>305</ele>
        <time>2019-07-05T17:03:57Z</time>
      </trkpt>
      <trkpt lat="44.58353" lon="1.56344">
        <ele>305</ele>
        <time>2019-07-05T17:04:12Z</time>
      </trkpt>
      <trkpt lat="44.58352" lon="1.5632">
        <ele>302</ele>
        <time>2019-07-05T17:04:31Z</time>
      </trkpt>
      <trkpt lat="44.58351" lon="1.563">
        <ele>298</ele>
        <time>2019-07-05T17:04:48Z</time>
      </trkpt>
      <trkpt lat="44.5835" lon="1.56283">
        <ele>295</ele>
        <time>2019-07-05T17:05:03Z</time>
      </trkpt>
      <trkpt lat="44.58348" lon="1.56261">
        <ele>291</ele>
        <time>2019-07-05T17:05:20Z</time>
      </trkpt>
      <trkpt lat="44.58349" lon="1.56243">
        <ele>289</ele>
        <time>2019-07-05T17:05:36Z</time>
      </trkpt>
      <trkpt lat="44.58353" lon="1.56225">
        <ele>289</ele>
        <time>2019-07-05T17:05:53Z</time>
      </trkpt>
      <trkpt lat="44.58359" lon="1.56211">
        <ele>289</ele>
        <time>2019-07-05T17:06:07Z</time>
      </trkpt>
      <trkpt lat="44.58362" lon="1.56197">
        <ele>287</ele>
        <time>2019-07-05T17:06:20Z</time>
      </trkpt>
      <trkpt lat="44.58367" lon="1.56182">
        <ele>282</ele>
        <time>2019-07-05T17:06:37Z</time>
      </trkpt>
      <trkpt lat="44.58371" lon="1.56165">
        <ele>279</ele>
        <time>2019-07-05T17:06:54Z</time>
      </trkpt>
      <trkpt lat="44.58376" lon="1.56147">
        <ele>277</ele>
        <time>2019-07-05T17:07:09Z</time>
      </trkpt>
      <trkpt lat="44.58383" lon="1.56127">
        <ele>278</ele>
        <time>2019-07-05T17:07:25Z</time>
      </trkpt>
      <trkpt lat="44.58387" lon="1.56113">
        <ele>277</ele>
        <time>2019-07-05T17:07:38Z</time>
      </trkpt>
      <trkpt lat="44.58391" lon="1.56094">
        <ele>272</ele>
        <time>2019-07-05T17:07:56Z</time>
      </trkpt>
      <trkpt lat="44.58394" lon="1.5608">
        <ele>270</ele>
        <time>2019-07-05T17:08:06Z</time>
      </trkpt>
      <trkpt lat="44.58399" lon="1.56053">
        <ele>277</ele>
        <time>2019-07-05T17:08:22Z</time>
      </trkpt>
      <trkpt lat="44.58401" lon="1.56033">
        <ele>276</ele>
        <time>2019-07-05T17:08:39Z</time>
      </trkpt>
      <trkpt lat="44.58393" lon="1.56015">
        <ele>275</ele>
        <time>2019-07-05T17:08:56Z</time>
      </trkpt>
      <trkpt lat="44.5838" lon="1.56005">
        <ele>274</ele>
        <time>2019-07-05T17:09:12Z</time>
      </trkpt>
      <trkpt lat="44.58374" lon="1.56004">
        <ele>270</ele>
        <time>2019-07-05T17:09:28Z</time>
      </trkpt>
      <trkpt lat="44.58373" lon="1.56009">
        <ele>272</ele>
        <time>2019-07-05T17:09:59Z</time>
      </trkpt>
      <trkpt lat="44.58375" lon="1.5601">
        <ele>272</ele>
        <time>2019-07-05T17:10:21Z</time>
      </trkpt>
      <trkpt lat="44.58382" lon="1.56011">
        <ele>271</ele>
        <time>2019-07-05T17:10:37Z</time>
      </trkpt>
      <trkpt lat="44.58391" lon="1.56017">
        <ele>270</ele>
        <time>2019-07-05T17:10:52Z</time>
      </trkpt>
      <trkpt lat="44.584" lon="1.56025">
        <ele>273</ele>
        <time>2019-07-05T17:11:07Z</time>
      </trkpt>
      <trkpt lat="44.58402" lon="1.56029">
        <ele>275</ele>
        <time>2019-07-05T17:11:23Z</time>
      </trkpt>
      <trkpt lat="44.58401" lon="1.56027">
        <ele>277</ele>
        <time>2019-07-05T17:11:43Z</time>
      </trkpt>
      <trkpt lat="44.58401" lon="1.56024">
        <ele>278</ele>
        <time>2019-07-05T17:12:03Z</time>
      </trkpt>
      <trkpt lat="44.584" lon="1.56022">
        <ele>277</ele>
        <time>2019-07-05T17:12:21Z</time>
      </trkpt>
      <trkpt lat="44.58394" lon="1.56011">
        <ele>275</ele>
        <time>2019-07-05T17:12:37Z</time>
      </trkpt>
      <trkpt lat="44.58382" lon="1.56006">
        <ele>273</ele>
        <time>2019-07-05T17:12:53Z</time>
      </trkpt>
      <trkpt lat="44.58368" lon="1.56001">
        <ele>269</ele>
        <time>2019-07-05T17:13:08Z</time>
      </trkpt>
      <trkpt lat="44.58367" lon="1.56001">
        <ele>268</ele>
        <time>2019-07-05T17:13:09Z</time>
      </trkpt>
      <trkpt lat="44.58351" lon="1.55996">
        <ele>265</ele>
        <time>2019-07-05T17:13:27Z</time>
      </trkpt>
      <trkpt lat="44.58345" lon="1.55994">
        <ele>264</ele>
        <time>2019-07-05T17:13:41Z</time>
      </trkpt>
      <trkpt lat="44.58329" lon="1.5599">
        <ele>262</ele>
        <time>2019-07-05T17:13:57Z</time>
      </trkpt>
      <trkpt lat="44.58314" lon="1.55984">
        <ele>261</ele>
        <time>2019-07-05T17:14:14Z</time>
      </trkpt>
      <trkpt lat="44.58312" lon="1.55984">
        <ele>261</ele>
        <time>2019-07-05T17:14:16Z</time>
      </trkpt>
      <trkpt lat="44.583" lon="1.5598">
        <ele>258</ele>
        <time>2019-07-05T17:14:30Z</time>
      </trkpt>
      <trkpt lat="44.58288" lon="1.55978">
        <ele>254</ele>
        <time>2019-07-05T17:14:45Z</time>
      </trkpt>
      <trkpt lat="44.58277" lon="1.55978">
        <ele>252</ele>
        <time>2019-07-05T17:14:58Z</time>
      </trkpt>
      <trkpt lat="44.58261" lon="1.55976">
        <ele>252</ele>
        <time>2019-07-05T17:15:14Z</time>
      </trkpt>
      <trkpt lat="44.58244" lon="1.55984">
        <ele>248</ele>
        <time>2019-07-05T17:15:33Z</time>
      </trkpt>
      <trkpt lat="44.58243" lon="1.55984">
        <ele>248</ele>
        <time>2019-07-05T17:15:34Z</time>
      </trkpt>
      <trkpt lat="44.58238" lon="1.55988">
        <ele>249</ele>
        <time>2019-07-05T17:15:39Z</time>
      </trkpt>
      <trkpt lat="44.58232" lon="1.55994">
        <ele>248</ele>
        <time>2019-07-05T17:15:48Z</time>
      </trkpt>
      <trkpt lat="44.58219" lon="1.56005">
        <ele>247</ele>
        <time>2019-07-05T17:16:02Z</time>
      </trkpt>
      <trkpt lat="44.58217" lon="1.56007">
        <ele>246</ele>
        <time>2019-07-05T17:16:04Z</time>
      </trkpt>
      <trkpt lat="44.58211" lon="1.56013">
        <ele>246</ele>
        <time>2019-07-05T17:16:11Z</time>
      </trkpt>
      <trkpt lat="44.58198" lon="1.56022">
        <ele>243</ele>
        <time>2019-07-05T17:16:26Z</time>
      </trkpt>
      <trkpt lat="44.58187" lon="1.56016">
        <ele>240</ele>
        <time>2019-07-05T17:16:40Z</time>
      </trkpt>
      <trkpt lat="44.58176" lon="1.56009">
        <ele>239</ele>
        <time>2019-07-05T17:16:52Z</time>
      </trkpt>
      <trkpt lat="44.58168" lon="1.55993">
        <ele>237</ele>
        <time>2019-07-05T17:17:08Z</time>
      </trkpt>
      <trkpt lat="44.5817" lon="1.55973">
        <ele>236</ele>
        <time>2019-07-05T17:17:24Z</time>
      </trkpt>
      <trkpt lat="44.58164" lon="1.55953">
        <ele>234</ele>
        <time>2019-07-05T17:17:43Z</time>
      </trkpt>
      <trkpt lat="44.58151" lon="1.55939">
        <ele>229</ele>
        <time>2019-07-05T17:18:01Z</time>
      </trkpt>
      <trkpt lat="44.58144" lon="1.55931">
        <ele>228</ele>
        <time>2019-07-05T17:18:10Z</time>
      </trkpt>
      <trkpt lat="44.58135" lon="1.55921">
        <ele>227</ele>
        <time>2019-07-05T17:18:24Z</time>
      </trkpt>
      <trkpt lat="44.58136" lon="1.55912">
        <ele>225</ele>
        <time>2019-07-05T17:18:34Z</time>
      </trkpt>
      <trkpt lat="44.58139" lon="1.55911">
        <ele>224</ele>
        <time>2019-07-05T17:18:37Z</time>
      </trkpt>
      <trkpt lat="44.58153" lon="1.55907">
        <ele>220</ele>
        <time>2019-07-05T17:18:51Z</time>
      </trkpt>
      <trkpt lat="44.58172" lon="1.55903">
        <ele>220</ele>
        <time>2019-07-05T17:19:08Z</time>
      </trkpt>
      <trkpt lat="44.58184" lon="1.55902">
        <ele>222</ele>
        <time>2019-07-05T17:19:17Z</time>
      </trkpt>
      <trkpt lat="44.58193" lon="1.55901">
        <ele>222</ele>
        <time>2019-07-05T17:19:23Z</time>
      </trkpt>
      <trkpt lat="44.58211" lon="1.559">
        <ele>221</ele>
        <time>2019-07-05T17:19:39Z</time>
      </trkpt>
      <trkpt lat="44.58236" lon="1.55896">
        <ele>221</ele>
        <time>2019-07-05T17:19:57Z</time>
      </trkpt>
      <trkpt lat="44.58239" lon="1.55884">
        <ele>219</ele>
        <time>2019-07-05T17:20:08Z</time>
      </trkpt>
      <trkpt lat="44.58243" lon="1.55859">
        <ele>215</ele>
        <time>2019-07-05T17:20:25Z</time>
      </trkpt>
      <trkpt lat="44.58253" lon="1.5585">
        <ele>216</ele>
        <time>2019-07-05T17:20:34Z</time>
      </trkpt>
      <trkpt lat="44.58268" lon="1.55848">
        <ele>215</ele>
        <time>2019-07-05T17:20:49Z</time>
      </trkpt>
      <trkpt lat="44.58281" lon="1.55849">
        <ele>219</ele>
        <time>2019-07-05T17:21:03Z</time>
      </trkpt>
      <trkpt lat="44.58296" lon="1.55862">
        <ele>220</ele>
        <time>2019-07-05T17:21:21Z</time>
      </trkpt>
      <trkpt lat="44.58295" lon="1.55866">
        <ele>214</ele>
        <time>2019-07-05T17:21:34Z</time>
      </trkpt>
      <trkpt lat="44.58299" lon="1.55877">
        <ele>203</ele>
        <time>2019-07-05T17:21:55Z</time>
      </trkpt>
      <trkpt lat="44.58298" lon="1.55885">
        <ele>199</ele>
        <time>2019-07-05T17:22:06Z</time>
      </trkpt>
      <trkpt lat="44.58306" lon="1.55904">
        <ele>199</ele>
        <time>2019-07-05T17:22:32Z</time>
      </trkpt>
      <trkpt lat="44.58306" lon="1.55901">
        <ele>199</ele>
        <time>2019-07-05T17:22:33Z</time>
      </trkpt>
      <trkpt lat="44.58324" lon="1.55941">
        <ele>200</ele>
        <time>2019-07-05T17:22:57Z</time>
      </trkpt>
      <trkpt lat="44.58294" lon="1.55867">
        <ele>200</ele>
        <time>2019-07-05T17:23:10Z</time>
      </trkpt>
      <trkpt lat="44.58296" lon="1.55872">
        <ele>202</ele>
        <time>2019-07-05T17:23:31Z</time>
      </trkpt>
      <trkpt lat="44.58295" lon="1.5587">
        <ele>203</ele>
        <time>2019-07-05T17:23:53Z</time>
      </trkpt>
      <trkpt lat="44.58301" lon="1.55866">
        <ele>209</ele>
        <time>2019-07-05T17:24:20Z</time>
      </trkpt>
      <trkpt lat="44.58295" lon="1.55856">
        <ele>220</ele>
        <time>2019-07-05T17:24:42Z</time>
      </trkpt>
      <trkpt lat="44.58305" lon="1.55857">
        <ele>221</ele>
        <time>2019-07-05T17:24:55Z</time>
      </trkpt>
      <trkpt lat="44.5831" lon="1.55855">
        <ele>220</ele>
        <time>2019-07-05T17:25:11Z</time>
      </trkpt>
      <trkpt lat="44.58297" lon="1.55857">
        <ele>217</ele>
        <time>2019-07-05T17:25:27Z</time>
      </trkpt>
      <trkpt lat="44.58301" lon="1.55848">
        <ele>216</ele>
        <time>2019-07-05T17:25:42Z</time>
      </trkpt>
      <trkpt lat="44.58314" lon="1.55845">
        <ele>216</ele>
        <time>2019-07-05T17:25:59Z</time>
      </trkpt>
      <trkpt lat="44.58323" lon="1.5584">
        <ele>216</ele>
        <time>2019-07-05T17:26:16Z</time>
      </trkpt>
      <trkpt lat="44.58323" lon="1.55842">
        <ele>218</ele>
        <time>2019-07-05T17:26:35Z</time>
      </trkpt>
      <trkpt lat="44.58323" lon="1.55839">
        <ele>219</ele>
        <time>2019-07-05T17:27:00Z</time>
      </trkpt>
      <trkpt lat="44.58321" lon="1.5584">
        <ele>221</ele>
        <time>2019-07-05T17:27:33Z</time>
      </trkpt>
      <trkpt lat="44.58321" lon="1.5584">
        <ele>223</ele>
        <time>2019-07-05T17:28:11Z</time>
      </trkpt>
      <trkpt lat="44.58323" lon="1.55838">
        <ele>225</ele>
        <time>2019-07-05T17:28:52Z</time>
      </trkpt>
      <trkpt lat="44.58322" lon="1.55837">
        <ele>222</ele>
        <time>2019-07-05T17:29:33Z</time>
      </trkpt>
      <trkpt lat="44.58323" lon="1.55837">
        <ele>223</ele>
        <time>2019-07-05T17:30:17Z</time>
      </trkpt>
      <trkpt lat="44.58322" lon="1.55839">
        <ele>221</ele>
        <time>2019-07-05T17:31:02Z</time>
      </trkpt>
      <trkpt lat="44.58322" lon="1.55839">
        <ele>221</ele>
        <time>2019-07-05T17:31:31Z</time>
      </trkpt>
      <trkpt lat="44.58323" lon="1.55839">
        <ele>222</ele>
        <time>2019-07-05T17:32:08Z</time>
      </trkpt>
      <trkpt lat="44.58322" lon="1.55839">
        <ele>224</ele>
        <time>2019-07-05T17:32:52Z</time>
      </trkpt>
      <trkpt lat="44.58322" lon="1.55838">
        <ele>223</ele>
        <time>2019-07-05T17:33:22Z</time>
      </trkpt>
      <trkpt lat="44.58322" lon="1.55837">
        <ele>223</ele>
        <time>2019-07-05T17:33:56Z</time>
      </trkpt>
      <trkpt lat="44.5832" lon="1.55839">
        <ele>224</ele>
        <time>2019-07-05T17:34:36Z</time>
      </trkpt>
      <trkpt lat="44.58321" lon="1.5584">
        <ele>222</ele>
        <time>2019-07-05T17:35:13Z</time>
      </trkpt>
      <trkpt lat="44.58322" lon="1.55838">
        <ele>223</ele>
        <time>2019-07-05T17:35:46Z</time>
      </trkpt>
      <trkpt lat="44.58321" lon="1.55839">
        <ele>223</ele>
        <time>2019-07-05T17:36:13Z</time>
      </trkpt>
      <trkpt lat="44.58321" lon="1.55839">
        <ele>224</ele>
        <time>2019-07-05T17:36:44Z</time>
      </trkpt>
      <trkpt lat="44.58322" lon="1.55838">
        <ele>225</ele>
        <time>2019-07-05T17:37:12Z</time>
      </trkpt>
      <trkpt lat="44.58324" lon="1.55839">
        <ele>224</ele>
        <time>2019-07-05T17:37:33Z</time>
      </trkpt>
      <trkpt lat="44.5832" lon="1.55839">
        <ele>223</ele>
        <time>2019-07-05T17:38:07Z</time>
      </trkpt>
      <trkpt lat="44.58322" lon="1.55838">
        <ele>222</ele>
        <time>2019-07-05T17:38:35Z</time>
      </trkpt>
      <trkpt lat="44.58322" lon="1.55841">
        <ele>223</ele>
        <time>2019-07-05T17:39:04Z</time>
      </trkpt>
      <trkpt lat="44.58322" lon="1.55839">
        <ele>224</ele>
        <time>2019-07-05T17:39:37Z</time>
      </trkpt>
      <trkpt lat="44.58321" lon="1.55839">
        <ele>226</ele>
        <time>2019-07-05T17:40:07Z</time>
      </trkpt>
      <trkpt lat="44.58322" lon="1.55837">
        <ele>228</ele>
        <time>2019-07-05T17:40:46Z</time>
      </trkpt>
      <trkpt lat="44.58322" lon="1.55839">
        <ele>226</ele>
        <time>2019-07-05T17:41:28Z</time>
      </trkpt>
      <trkpt lat="44.58321" lon="1.55842">
        <ele>225</ele>
        <time>2019-07-05T17:42:00Z</time>
      </trkpt>
      <trkpt lat="44.58322" lon="1.55839">
        <ele>224</ele>
        <time>2019-07-05T17:42:35Z</time>
      </trkpt>
      <trkpt lat="44.58322" lon="1.55839">
        <ele>225</ele>
        <time>2019-07-05T17:43:05Z</time>
      </trkpt>
      <trkpt lat="44.58323" lon="1.55839">
        <ele>223</ele>
        <time>2019-07-05T17:43:35Z</time>
      </trkpt>
      <trkpt lat="44.58323" lon="1.55838">
        <ele>224</ele>
        <time>2019-07-05T17:44:03Z</time>
      </trkpt>
      <trkpt lat="44.58325" lon="1.5584">
        <ele>222</ele>
        <time>2019-07-05T17:44:35Z</time>
      </trkpt>
      <trkpt lat="44.58324" lon="1.55841">
        <ele>225</ele>
        <time>2019-07-05T17:45:08Z</time>
      </trkpt>
      <trkpt lat="44.58324" lon="1.55842">
        <ele>227</ele>
        <time>2019-07-05T17:45:46Z</time>
      </trkpt>
      <trkpt lat="44.58326" lon="1.55839">
        <ele>227</ele>
        <time>2019-07-05T17:46:21Z</time>
      </trkpt>
      <trkpt lat="44.58324" lon="1.55837">
        <ele>226</ele>
        <time>2019-07-05T17:47:00Z</time>
      </trkpt>
      <trkpt lat="44.58323" lon="1.55837">
        <ele>226</ele>
        <time>2019-07-05T17:47:29Z</time>
      </trkpt>
      <trkpt lat="44.58324" lon="1.55839">
        <ele>224</ele>
        <time>2019-07-05T17:48:09Z</time>
      </trkpt>
      <trkpt lat="44.58324" lon="1.5584">
        <ele>221</ele>
        <time>2019-07-05T17:48:44Z</time>
      </trkpt>
      <trkpt lat="44.58323" lon="1.55836">
        <ele>220</ele>
        <time>2019-07-05T17:49:12Z</time>
      </trkpt>
      <trkpt lat="44.58322" lon="1.55837">
        <ele>222</ele>
        <time>2019-07-05T17:49:33Z</time>
      </trkpt>
      <trkpt lat="44.58321" lon="1.55837">
        <ele>222</ele>
        <time>2019-07-05T17:49:54Z</time>
      </trkpt>
      <trkpt lat="44.58322" lon="1.55836">
        <ele>223</ele>
        <time>2019-07-05T17:50:21Z</time>
      </trkpt>
      <trkpt lat="44.58322" lon="1.55837">
        <ele>222</ele>
        <time>2019-07-05T17:50:48Z</time>
      </trkpt>
      <trkpt lat="44.58323" lon="1.55836">
        <ele>225</ele>
        <time>2019-07-05T17:51:26Z</time>
      </trkpt>
      <trkpt lat="44.58324" lon="1.55835">
        <ele>225</ele>
        <time>2019-07-05T17:51:49Z</time>
      </trkpt>
      <trkpt lat="44.58323" lon="1.55833">
        <ele>224</ele>
        <time>2019-07-05T17:52:19Z</time>
      </trkpt>
      <trkpt lat="44.58323" lon="1.55838">
        <ele>227</ele>
        <time>2019-07-05T17:52:49Z</time>
      </trkpt>
      <trkpt lat="44.58323" lon="1.5584">
        <ele>225</ele>
        <time>2019-07-05T17:53:18Z</time>
      </trkpt>
      <trkpt lat="44.58323" lon="1.55838">
        <ele>225</ele>
        <time>2019-07-05T17:53:50Z</time>
      </trkpt>
      <trkpt lat="44.58323" lon="1.55839">
        <ele>224</ele>
        <time>2019-07-05T17:54:17Z</time>
      </trkpt>
      <trkpt lat="44.58323" lon="1.5584">
        <ele>224</ele>
        <time>2019-07-05T17:54:39Z</time>
      </trkpt>
      <trkpt lat="44.58323" lon="1.55839">
        <ele>224</ele>
        <time>2019-07-05T17:55:01Z</time>
      </trkpt>
      <trkpt lat="44.58323" lon="1.55838">
        <ele>225</ele>
        <time>2019-07-05T17:55:39Z</time>
      </trkpt>
      <trkpt lat="44.58323" lon="1.55838">
        <ele>225</ele>
        <time>2019-07-05T17:56:11Z</time>
      </trkpt>
      <trkpt lat="44.58323" lon="1.55837">
        <ele>222</ele>
        <time>2019-07-05T17:56:44Z</time>
      </trkpt>
      <trkpt lat="44.58322" lon="1.55839">
        <ele>220</ele>
        <time>2019-07-05T17:57:21Z</time>
      </trkpt>
      <trkpt lat="44.5832" lon="1.5584">
        <ele>220</ele>
        <time>2019-07-05T17:57:50Z</time>
      </trkpt>
      <trkpt lat="44.5832" lon="1.55839">
        <ele>221</ele>
        <time>2019-07-05T17:58:15Z</time>
      </trkpt>
      <trkpt lat="44.58322" lon="1.55839">
        <ele>222</ele>
        <time>2019-07-05T17:58:38Z</time>
      </trkpt>
      <trkpt lat="44.58322" lon="1.55842">
        <ele>221</ele>
        <time>2019-07-05T17:59:01Z</time>
      </trkpt>
      <trkpt lat="44.5832" lon="1.55847">
        <ele>221</ele>
        <time>2019-07-05T17:59:06Z</time>
      </trkpt>
      <trkpt lat="44.58303" lon="1.55848">
        <ele>220</ele>
        <time>2019-07-05T17:59:23Z</time>
      </trkpt>
      <trkpt lat="44.58293" lon="1.5585">
        <ele>220</ele>
        <time>2019-07-05T17:59:33Z</time>
      </trkpt>
      <trkpt lat="44.58291" lon="1.55856">
        <ele>221</ele>
        <time>2019-07-05T17:59:38Z</time>
      </trkpt>
      <trkpt lat="44.58293" lon="1.55862">
        <ele>221</ele>
        <time>2019-07-05T17:59:51Z</time>
      </trkpt>
      <trkpt lat="44.5829" lon="1.55864">
        <ele>217</ele>
        <time>2019-07-05T18:00:10Z</time>
      </trkpt>
      <trkpt lat="44.58291" lon="1.55857">
        <ele>214</ele>
        <time>2019-07-05T18:00:32Z</time>
      </trkpt>
      <trkpt lat="44.58289" lon="1.55862">
        <ele>209</ele>
        <time>2019-07-05T18:00:58Z</time>
      </trkpt>
      <trkpt lat="44.5829" lon="1.55856">
        <ele>220</ele>
        <time>2019-07-05T18:01:23Z</time>
      </trkpt>
      <trkpt lat="44.58287" lon="1.55856">
        <ele>224</ele>
        <time>2019-07-05T18:01:41Z</time>
      </trkpt>
      <trkpt lat="44.58291" lon="1.55854">
        <ele>225</ele>
        <time>2019-07-05T18:01:58Z</time>
      </trkpt>
      <trkpt lat="44.58291" lon="1.55852">
        <ele>226</ele>
        <time>2019-07-05T18:02:03Z</time>
      </trkpt>
      <trkpt lat="44.58278" lon="1.55842">
        <ele>224</ele>
        <time>2019-07-05T18:02:18Z</time>
      </trkpt>
      <trkpt lat="44.58264" lon="1.55842">
        <ele>221</ele>
        <time>2019-07-05T18:02:28Z</time>
      </trkpt>
      <trkpt lat="44.58258" lon="1.55843">
        <ele>221</ele>
        <time>2019-07-05T18:02:32Z</time>
      </trkpt>
      <trkpt lat="44.58249" lon="1.55847">
        <ele>222</ele>
        <time>2019-07-05T18:02:39Z</time>
      </trkpt>
      <trkpt lat="44.58244" lon="1.55848">
        <ele>223</ele>
        <time>2019-07-05T18:02:52Z</time>
      </trkpt>
      <trkpt lat="44.58243" lon="1.55845">
        <ele>223</ele>
        <time>2019-07-05T18:03:03Z</time>
      </trkpt>
      <trkpt lat="44.58244" lon="1.5583">
        <ele>220</ele>
        <time>2019-07-05T18:03:18Z</time>
      </trkpt>
      <trkpt lat="44.58243" lon="1.55805">
        <ele>222</ele>
        <time>2019-07-05T18:03:34Z</time>
      </trkpt>
      <trkpt lat="44.58245" lon="1.55792">
        <ele>221</ele>
        <time>2019-07-05T18:03:50Z</time>
      </trkpt>
      <trkpt lat="44.58245" lon="1.55792">
        <ele>220</ele>
        <time>2019-07-05T18:03:55Z</time>
      </trkpt>
      <trkpt lat="44.58245" lon="1.55778">
        <ele>221</ele>
        <time>2019-07-05T18:04:10Z</time>
      </trkpt>
      <trkpt lat="44.58244" lon="1.55764">
        <ele>222</ele>
        <time>2019-07-05T18:04:20Z</time>
      </trkpt>
      <trkpt lat="44.58239" lon="1.55756">
        <ele>222</ele>
        <time>2019-07-05T18:04:33Z</time>
      </trkpt>
      <trkpt lat="44.58238" lon="1.55756">
        <ele>222</ele>
        <time>2019-07-05T18:04:34Z</time>
      </trkpt>
      <trkpt lat="44.58219" lon="1.55748">
        <ele>219</ele>
        <time>2019-07-05T18:04:51Z</time>
      </trkpt>
      <trkpt lat="44.58212" lon="1.55739">
        <ele>219</ele>
        <time>2019-07-05T18:05:06Z</time>
      </trkpt>
      <trkpt lat="44.58201" lon="1.55739">
        <ele>217</ele>
        <time>2019-07-05T18:05:21Z</time>
      </trkpt>
      <trkpt lat="44.58185" lon="1.55746">
        <ele>216</ele>
        <time>2019-07-05T18:05:35Z</time>
      </trkpt>
      <trkpt lat="44.58181" lon="1.55749">
        <ele>216</ele>
        <time>2019-07-05T18:05:38Z</time>
      </trkpt>
      <trkpt lat="44.58168" lon="1.55761">
        <ele>219</ele>
        <time>2019-07-05T18:05:52Z</time>
      </trkpt>
      <trkpt lat="44.58152" lon="1.55771">
        <ele>221</ele>
        <time>2019-07-05T18:06:09Z</time>
      </trkpt>
      <trkpt lat="44.58138" lon="1.55776">
        <ele>216</ele>
        <time>2019-07-05T18:06:25Z</time>
      </trkpt>
      <trkpt lat="44.58117" lon="1.55782">
        <ele>217</ele>
        <time>2019-07-05T18:06:43Z</time>
      </trkpt>
      <trkpt lat="44.58115" lon="1.55778">
        <ele>217</ele>
        <time>2019-07-05T18:06:58Z</time>
      </trkpt>
      <trkpt lat="44.58112" lon="1.55783">
        <ele>218</ele>
        <time>2019-07-05T18:07:11Z</time>
      </trkpt>
      <trkpt lat="44.58111" lon="1.55783">
        <ele>220</ele>
        <time>2019-07-05T18:07:23Z</time>
      </trkpt>
      <trkpt lat="44.58111" lon="1.5578">
        <ele>219</ele>
        <time>2019-07-05T18:07:39Z</time>
      </trkpt>
      <trkpt lat="44.58109" lon="1.55782">
        <ele>218</ele>
        <time>2019-07-05T18:08:01Z</time>
      </trkpt>
      <trkpt lat="44.58112" lon="1.55785">
        <ele>218</ele>
        <time>2019-07-05T18:08:18Z</time>
      </trkpt>
      <trkpt lat="44.58113" lon="1.55783">
        <ele>219</ele>
        <time>2019-07-05T18:08:35Z</time>
      </trkpt>
      <trkpt lat="44.58109" lon="1.55778">
        <ele>218</ele>
        <time>2019-07-05T18:08:45Z</time>
      </trkpt>
      <trkpt lat="44.58098" lon="1.55782">
        <ele>214</ele>
        <time>2019-07-05T18:08:54Z</time>
      </trkpt>
      <trkpt lat="44.581" lon="1.55796">
        <ele>215</ele>
        <time>2019-07-05T18:09:03Z</time>
      </trkpt>
      <trkpt lat="44.58104" lon="1.55811">
        <ele>215</ele>
        <time>2019-07-05T18:09:16Z</time>
      </trkpt>
      <trkpt lat="44.58104" lon="1.55816">
        <ele>215</ele>
        <time>2019-07-05T18:09:20Z</time>
      </trkpt>
      <trkpt lat="44.58103" lon="1.5582">
        <ele>215</ele>
        <time>2019-07-05T18:09:23Z</time>
      </trkpt>
      <trkpt lat="44.58089" lon="1.55835">
        <ele>210</ele>
        <time>2019-07-05T18:09:40Z</time>
      </trkpt>
      <trkpt lat="44.58088" lon="1.55849">
        <ele>212</ele>
        <time>2019-07-05T18:09:51Z</time>
      </trkpt>
      <trkpt lat="44.58087" lon="1.55853">
        <ele>212</ele>
        <time>2019-07-05T18:09:53Z</time>
      </trkpt>
      <trkpt lat="44.58076" lon="1.55853">
        <ele>208</ele>
        <time>2019-07-05T18:10:08Z</time>
      </trkpt>
      <trkpt lat="44.58067" lon="1.55852">
        <ele>202</ele>
        <time>2019-07-05T18:10:22Z</time>
      </trkpt>
      <trkpt lat="44.5807" lon="1.55877">
        <ele>192</ele>
        <time>2019-07-05T18:10:45Z</time>
      </trkpt>
      <trkpt lat="44.58064" lon="1.55887">
        <ele>190</ele>
        <time>2019-07-05T18:11:06Z</time>
      </trkpt>
      <trkpt lat="44.5806" lon="1.55859">
        <ele>202</ele>
        <time>2019-07-05T18:11:25Z</time>
      </trkpt>
      <trkpt lat="44.58051" lon="1.55868">
        <ele>207</ele>
        <time>2019-07-05T18:11:39Z</time>
      </trkpt>
      <trkpt lat="44.58051" lon="1.55864">
        <ele>207</ele>
        <time>2019-07-05T18:11:42Z</time>
      </trkpt>
      <trkpt lat="44.58048" lon="1.5586">
        <ele>207</ele>
        <time>2019-07-05T18:11:46Z</time>
      </trkpt>
      <trkpt lat="44.58043" lon="1.55862">
        <ele>207</ele>
        <time>2019-07-05T18:11:50Z</time>
      </trkpt>
      <trkpt lat="44.58031" lon="1.55871">
        <ele>208</ele>
        <time>2019-07-05T18:12:07Z</time>
      </trkpt>
      <trkpt lat="44.58028" lon="1.55871">
        <ele>208</ele>
        <time>2019-07-05T18:12:10Z</time>
      </trkpt>
      <trkpt lat="44.58017" lon="1.55869">
        <ele>206</ele>
        <time>2019-07-05T18:12:19Z</time>
      </trkpt>
      <trkpt lat="44.58018" lon="1.55895">
        <ele>213</ele>
        <time>2019-07-05T18:12:35Z</time>
      </trkpt>
      <trkpt lat="44.5802" lon="1.55898">
        <ele>214</ele>
        <time>2019-07-05T18:12:38Z</time>
      </trkpt>
      <trkpt lat="44.58031" lon="1.55921">
        <ele>212</ele>
        <time>2019-07-05T18:12:54Z</time>
      </trkpt>
      <trkpt lat="44.58031" lon="1.55922">
        <ele>212</ele>
        <time>2019-07-05T18:12:55Z</time>
      </trkpt>
      <trkpt lat="44.5802" lon="1.55943">
        <ele>215</ele>
        <time>2019-07-05T18:13:12Z</time>
      </trkpt>
      <trkpt lat="44.58009" lon="1.55956">
        <ele>215</ele>
        <time>2019-07-05T18:13:29Z</time>
      </trkpt>
      <trkpt lat="44.58006" lon="1.55965">
        <ele>214</ele>
        <time>2019-07-05T18:13:41Z</time>
      </trkpt>
      <trkpt lat="44.57993" lon="1.55982">
        <ele>220</ele>
        <time>2019-07-05T18:13:58Z</time>
      </trkpt>
      <trkpt lat="44.5798" lon="1.55987">
        <ele>227</ele>
        <time>2019-07-05T18:14:13Z</time>
      </trkpt>
      <trkpt lat="44.57965" lon="1.55991">
        <ele>230</ele>
        <time>2019-07-05T18:14:28Z</time>
      </trkpt>
      <trkpt lat="44.57956" lon="1.55992">
        <ele>230</ele>
        <time>2019-07-05T18:14:36Z</time>
      </trkpt>
      <trkpt lat="44.5794" lon="1.55996">
        <ele>230</ele>
        <time>2019-07-05T18:14:52Z</time>
      </trkpt>
      <trkpt lat="44.57925" lon="1.56002">
        <ele>227</ele>
        <time>2019-07-05T18:15:06Z</time>
      </trkpt>
      <trkpt lat="44.5791" lon="1.56008">
        <ele>225</ele>
        <time>2019-07-05T18:15:21Z</time>
      </trkpt>
      <trkpt lat="44.57898" lon="1.56014">
        <ele>225</ele>
        <time>2019-07-05T18:15:33Z</time>
      </trkpt>
      <trkpt lat="44.57882" lon="1.5603">
        <ele>224</ele>
        <time>2019-07-05T18:15:51Z</time>
      </trkpt>
      <trkpt lat="44.57876" lon="1.56043">
        <ele>220</ele>
        <time>2019-07-05T18:16:03Z</time>
      </trkpt>
      <trkpt lat="44.57872" lon="1.56057">
        <ele>216</ele>
        <time>2019-07-05T18:16:15Z</time>
      </trkpt>
      <trkpt lat="44.57869" lon="1.56074">
        <ele>216</ele>
        <time>2019-07-05T18:16:30Z</time>
      </trkpt>
      <trkpt lat="44.57868" lon="1.56078">
        <ele>216</ele>
        <time>2019-07-05T18:16:33Z</time>
      </trkpt>
      <trkpt lat="44.57863" lon="1.561">
        <ele>224</ele>
        <time>2019-07-05T18:16:47Z</time>
      </trkpt>
      <trkpt lat="44.57864" lon="1.561">
        <ele>227</ele>
        <time>2019-07-05T18:17:05Z</time>
      </trkpt>
      <trkpt lat="44.57863" lon="1.56117">
        <ele>227</ele>
        <time>2019-07-05T18:17:23Z</time>
      </trkpt>
      <trkpt lat="44.57863" lon="1.56137">
        <ele>225</ele>
        <time>2019-07-05T18:17:38Z</time>
      </trkpt>
      <trkpt lat="44.57863" lon="1.56156">
        <ele>233</ele>
        <time>2019-07-05T18:17:52Z</time>
      </trkpt>
      <trkpt lat="44.57859" lon="1.56174">
        <ele>237</ele>
        <time>2019-07-05T18:18:08Z</time>
      </trkpt>
      <trkpt lat="44.57857" lon="1.56192">
        <ele>239</ele>
        <time>2019-07-05T18:18:23Z</time>
      </trkpt>
      <trkpt lat="44.57857" lon="1.5621">
        <ele>237</ele>
        <time>2019-07-05T18:18:34Z</time>
      </trkpt>
      <trkpt lat="44.57856" lon="1.56226">
        <ele>238</ele>
        <time>2019-07-05T18:18:46Z</time>
      </trkpt>
      <trkpt lat="44.57854" lon="1.56246">
        <ele>239</ele>
        <time>2019-07-05T18:19:00Z</time>
      </trkpt>
      <trkpt lat="44.57851" lon="1.56255">
        <ele>239</ele>
        <time>2019-07-05T18:19:08Z</time>
      </trkpt>
      <trkpt lat="44.57845" lon="1.56277">
        <ele>236</ele>
        <time>2019-07-05T18:19:24Z</time>
      </trkpt>
      <trkpt lat="44.5784" lon="1.56296">
        <ele>235</ele>
        <time>2019-07-05T18:19:37Z</time>
      </trkpt>
      <trkpt lat="44.57836" lon="1.56315">
        <ele>232</ele>
        <time>2019-07-05T18:19:51Z</time>
      </trkpt>
      <trkpt lat="44.5783" lon="1.56337">
        <ele>230</ele>
        <time>2019-07-05T18:20:06Z</time>
      </trkpt>
      <trkpt lat="44.57822" lon="1.56357">
        <ele>229</ele>
        <time>2019-07-05T18:20:20Z</time>
      </trkpt>
      <trkpt lat="44.57818" lon="1.56367">
        <ele>228</ele>
        <time>2019-07-05T18:20:27Z</time>
      </trkpt>
      <trkpt lat="44.57809" lon="1.56392">
        <ele>228</ele>
        <time>2019-07-05T18:20:46Z</time>
      </trkpt>
      <trkpt lat="44.578" lon="1.56412">
        <ele>226</ele>
        <time>2019-07-05T18:21:03Z</time>
      </trkpt>
      <trkpt lat="44.57792" lon="1.56435">
        <ele>226</ele>
        <time>2019-07-05T18:21:20Z</time>
      </trkpt>
      <trkpt lat="44.57786" lon="1.56449">
        <ele>227</ele>
        <time>2019-07-05T18:21:29Z</time>
      </trkpt>
      <trkpt lat="44.5778" lon="1.56466">
        <ele>229</ele>
        <time>2019-07-05T18:21:41Z</time>
      </trkpt>
      <trkpt lat="44.57777" lon="1.56491">
        <ele>236</ele>
        <time>2019-07-05T18:21:56Z</time>
      </trkpt>
      <trkpt lat="44.57776" lon="1.56494">
        <ele>236</ele>
        <time>2019-07-05T18:21:58Z</time>
      </trkpt>
      <trkpt lat="44.57768" lon="1.56518">
        <ele>236</ele>
        <time>2019-07-05T18:22:14Z</time>
      </trkpt>
      <trkpt lat="44.57761" lon="1.56533">
        <ele>233</ele>
        <time>2019-07-05T18:22:28Z</time>
      </trkpt>
      <trkpt lat="44.57756" lon="1.56551">
        <ele>230</ele>
        <time>2019-07-05T18:22:42Z</time>
      </trkpt>
      <trkpt lat="44.5775" lon="1.5657">
        <ele>228</ele>
        <time>2019-07-05T18:22:56Z</time>
      </trkpt>
      <trkpt lat="44.57746" lon="1.56587">
        <ele>228</ele>
        <time>2019-07-05T18:23:08Z</time>
      </trkpt>
      <trkpt lat="44.57737" lon="1.56607">
        <ele>231</ele>
        <time>2019-07-05T18:23:22Z</time>
      </trkpt>
      <trkpt lat="44.57733" lon="1.56623">
        <ele>233</ele>
        <time>2019-07-05T18:23:31Z</time>
      </trkpt>
      <trkpt lat="44.57726" lon="1.56643">
        <ele>232</ele>
        <time>2019-07-05T18:23:47Z</time>
      </trkpt>
      <trkpt lat="44.5772" lon="1.56649">
        <ele>235</ele>
        <time>2019-07-05T18:23:52Z</time>
      </trkpt>
      <trkpt lat="44.57709" lon="1.56653">
        <ele>235</ele>
        <time>2019-07-05T18:24:02Z</time>
      </trkpt>
      <trkpt lat="44.57705" lon="1.56654">
        <ele>234</ele>
        <time>2019-07-05T18:24:06Z</time>
      </trkpt>
      <trkpt lat="44.57689" lon="1.56659">
        <ele>233</ele>
        <time>2019-07-05T18:24:20Z</time>
      </trkpt>
      <trkpt lat="44.57683" lon="1.56674">
        <ele>236</ele>
        <time>2019-07-05T18:24:33Z</time>
      </trkpt>
      <trkpt lat="44.5768" lon="1.56678">
        <ele>238</ele>
        <time>2019-07-05T18:24:38Z</time>
      </trkpt>
      <trkpt lat="44.57663" lon="1.56672">
        <ele>245</ele>
        <time>2019-07-05T18:24:53Z</time>
      </trkpt>
      <trkpt lat="44.57651" lon="1.56678">
        <ele>251</ele>
        <time>2019-07-05T18:25:07Z</time>
      </trkpt>
      <trkpt lat="44.5764" lon="1.56684">
        <ele>253</ele>
        <time>2019-07-05T18:25:22Z</time>
      </trkpt>
      <trkpt lat="44.57629" lon="1.56674">
        <ele>252</ele>
        <time>2019-07-05T18:25:37Z</time>
      </trkpt>
      <trkpt lat="44.57619" lon="1.56674">
        <ele>250</ele>
        <time>2019-07-05T18:25:53Z</time>
      </trkpt>
      <trkpt lat="44.57612" lon="1.5668">
        <ele>247</ele>
        <time>2019-07-05T18:26:05Z</time>
      </trkpt>
      <trkpt lat="44.57608" lon="1.56699">
        <ele>244</ele>
        <time>2019-07-05T18:26:24Z</time>
      </trkpt>
      <trkpt lat="44.57606" lon="1.56716">
        <ele>242</ele>
        <time>2019-07-05T18:26:37Z</time>
      </trkpt>
      <trkpt lat="44.57604" lon="1.56733">
        <ele>241</ele>
        <time>2019-07-05T18:26:49Z</time>
      </trkpt>
      <trkpt lat="44.576" lon="1.56765">
        <ele>249</ele>
        <time>2019-07-05T18:27:02Z</time>
      </trkpt>
      <trkpt lat="44.57598" lon="1.56785">
        <ele>252</ele>
        <time>2019-07-05T18:27:17Z</time>
      </trkpt>
      <trkpt lat="44.57597" lon="1.56802">
        <ele>254</ele>
        <time>2019-07-05T18:27:31Z</time>
      </trkpt>
      <trkpt lat="44.57593" lon="1.56828">
        <ele>252</ele>
        <time>2019-07-05T18:27:51Z</time>
      </trkpt>
      <trkpt lat="44.57595" lon="1.56845">
        <ele>251</ele>
        <time>2019-07-05T18:28:06Z</time>
      </trkpt>
      <trkpt lat="44.57596" lon="1.56862">
        <ele>247</ele>
        <time>2019-07-05T18:28:22Z</time>
      </trkpt>
      <trkpt lat="44.57596" lon="1.56879">
        <ele>246</ele>
        <time>2019-07-05T18:28:37Z</time>
      </trkpt>
      <trkpt lat="44.57595" lon="1.56898">
        <ele>241</ele>
        <time>2019-07-05T18:28:54Z</time>
      </trkpt>
      <trkpt lat="44.57595" lon="1.56918">
        <ele>243</ele>
        <time>2019-07-05T18:29:06Z</time>
      </trkpt>
      <trkpt lat="44.57594" lon="1.56935">
        <ele>245</ele>
        <time>2019-07-05T18:29:21Z</time>
      </trkpt>
      <trkpt lat="44.57593" lon="1.56951">
        <ele>252</ele>
        <time>2019-07-05T18:29:34Z</time>
      </trkpt>
      <trkpt lat="44.57591" lon="1.56967">
        <ele>257</ele>
        <time>2019-07-05T18:29:47Z</time>
      </trkpt>
      <trkpt lat="44.5759" lon="1.56983">
        <ele>264</ele>
        <time>2019-07-05T18:30:03Z</time>
      </trkpt>
      <trkpt lat="44.57589" lon="1.56995">
        <ele>270</ele>
        <time>2019-07-05T18:30:16Z</time>
      </trkpt>
      <trkpt lat="44.57587" lon="1.57001">
        <ele>272</ele>
        <time>2019-07-05T18:30:30Z</time>
      </trkpt>
      <trkpt lat="44.57587" lon="1.5701">
        <ele>272</ele>
        <time>2019-07-05T18:30:46Z</time>
      </trkpt>
      <trkpt lat="44.5759" lon="1.57009">
        <ele>274</ele>
        <time>2019-07-05T18:31:04Z</time>
      </trkpt>
      <trkpt lat="44.57582" lon="1.57009">
        <ele>281</ele>
        <time>2019-07-05T18:31:30Z</time>
      </trkpt>
      <trkpt lat="44.57583" lon="1.57012">
        <ele>285</ele>
        <time>2019-07-05T18:31:50Z</time>
      </trkpt>
      <trkpt lat="44.57584" lon="1.5701">
        <ele>287</ele>
        <time>2019-07-05T18:32:05Z</time>
      </trkpt>
      <trkpt lat="44.57582" lon="1.57009">
        <ele>289</ele>
        <time>2019-07-05T18:32:26Z</time>
      </trkpt>
      <trkpt lat="44.57581" lon="1.57006">
        <ele>289</ele>
        <time>2019-07-05T18:32:44Z</time>
      </trkpt>
      <trkpt lat="44.57581" lon="1.57004">
        <ele>295</ele>
        <time>2019-07-05T18:33:07Z</time>
      </trkpt>
      <trkpt lat="44.57583" lon="1.57006">
        <ele>290</ele>
        <time>2019-07-05T18:33:29Z</time>
      </trkpt>
      <trkpt lat="44.57586" lon="1.57015">
        <ele>287</ele>
        <time>2019-07-05T18:33:47Z</time>
      </trkpt>
      <trkpt lat="44.57584" lon="1.57031">
        <ele>289</ele>
        <time>2019-07-05T18:34:00Z</time>
      </trkpt>
      <trkpt lat="44.57581" lon="1.5705">
        <ele>290</ele>
        <time>2019-07-05T18:34:14Z</time>
      </trkpt>
      <trkpt lat="44.57583" lon="1.57063">
        <ele>292</ele>
        <time>2019-07-05T18:34:29Z</time>
      </trkpt>
      <trkpt lat="44.57583" lon="1.5708">
        <ele>295</ele>
        <time>2019-07-05T18:34:46Z</time>
      </trkpt>
      <trkpt lat="44.57584" lon="1.57091">
        <ele>295</ele>
        <time>2019-07-05T18:34:59Z</time>
      </trkpt>
      <trkpt lat="44.57586" lon="1.571">
        <ele>300</ele>
        <time>2019-07-05T18:35:13Z</time>
      </trkpt>
      <trkpt lat="44.57589" lon="1.57106">
        <ele>304</ele>
        <time>2019-07-05T18:35:29Z</time>
      </trkpt>
      <trkpt lat="44.57593" lon="1.57115">
        <ele>309</ele>
        <time>2019-07-05T18:35:45Z</time>
      </trkpt>
      <trkpt lat="44.57598" lon="1.57125">
        <ele>308</ele>
        <time>2019-07-05T18:36:01Z</time>
      </trkpt>
      <trkpt lat="44.57606" lon="1.57137">
        <ele>305</ele>
        <time>2019-07-05T18:36:16Z</time>
      </trkpt>
      <trkpt lat="44.57611" lon="1.57151">
        <ele>302</ele>
        <time>2019-07-05T18:36:30Z</time>
      </trkpt>
      <trkpt lat="44.57621" lon="1.57163">
        <ele>301</ele>
        <time>2019-07-05T18:36:46Z</time>
      </trkpt>
      <trkpt lat="44.57626" lon="1.57171">
        <ele>301</ele>
        <time>2019-07-05T18:37:00Z</time>
      </trkpt>
      <trkpt lat="44.57627" lon="1.5718">
        <ele>302</ele>
        <time>2019-07-05T18:37:15Z</time>
      </trkpt>
      <trkpt lat="44.57629" lon="1.57192">
        <ele>306</ele>
        <time>2019-07-05T18:37:29Z</time>
      </trkpt>
      <trkpt lat="44.57625" lon="1.57204">
        <ele>307</ele>
        <time>2019-07-05T18:37:45Z</time>
      </trkpt>
      <trkpt lat="44.57619" lon="1.57216">
        <ele>308</ele>
        <time>2019-07-05T18:37:58Z</time>
      </trkpt>
      <trkpt lat="44.57614" lon="1.57219">
        <ele>308</ele>
        <time>2019-07-05T18:38:11Z</time>
      </trkpt>
      <trkpt lat="44.57614" lon="1.57223">
        <ele>312</ele>
        <time>2019-07-05T18:38:26Z</time>
      </trkpt>
      <trkpt lat="44.57616" lon="1.5723">
        <ele>314</ele>
        <time>2019-07-05T18:38:49Z</time>
      </trkpt>
      <trkpt lat="44.57614" lon="1.57235">
        <ele>323</ele>
        <time>2019-07-05T18:39:15Z</time>
      </trkpt>
      <trkpt lat="44.57609" lon="1.57237">
        <ele>325</ele>
        <time>2019-07-05T18:39:34Z</time>
      </trkpt>
      <trkpt lat="44.57604" lon="1.57245">
        <ele>326</ele>
        <time>2019-07-05T18:39:46Z</time>
      </trkpt>
      <trkpt lat="44.57599" lon="1.57254">
        <ele>327</ele>
        <time>2019-07-05T18:40:00Z</time>
      </trkpt>
      <trkpt lat="44.57594" lon="1.57267">
        <ele>329</ele>
        <time>2019-07-05T18:40:14Z</time>
      </trkpt>
      <trkpt lat="44.5759" lon="1.5728">
        <ele>331</ele>
        <time>2019-07-05T18:40:28Z</time>
      </trkpt>
      <trkpt lat="44.57584" lon="1.5729">
        <ele>331</ele>
        <time>2019-07-05T18:40:43Z</time>
      </trkpt>
      <trkpt lat="44.57576" lon="1.57298">
        <ele>333</ele>
        <time>2019-07-05T18:40:56Z</time>
      </trkpt>
      <trkpt lat="44.57568" lon="1.57297">
        <ele>334</ele>
        <time>2019-07-05T18:41:13Z</time>
      </trkpt>
      <trkpt lat="44.57559" lon="1.57303">
        <ele>337</ele>
        <time>2019-07-05T18:41:29Z</time>
      </trkpt>
      <trkpt lat="44.57564" lon="1.57314">
        <ele>339</ele>
        <time>2019-07-05T18:41:41Z</time>
      </trkpt>
      <trkpt lat="44.57569" lon="1.57327">
        <ele>347</ele>
        <time>2019-07-05T18:41:55Z</time>
      </trkpt>
      <trkpt lat="44.57571" lon="1.57343">
        <ele>350</ele>
        <time>2019-07-05T18:42:10Z</time>
      </trkpt>
      <trkpt lat="44.57572" lon="1.57354">
        <ele>354</ele>
        <time>2019-07-05T18:42:23Z</time>
      </trkpt>
      <trkpt lat="44.57573" lon="1.57365">
        <ele>358</ele>
        <time>2019-07-05T18:42:35Z</time>
      </trkpt>
      <trkpt lat="44.57571" lon="1.57374">
        <ele>357</ele>
        <time>2019-07-05T18:42:45Z</time>
      </trkpt>
      <trkpt lat="44.57561" lon="1.57374">
        <ele>360</ele>
        <time>2019-07-05T18:43:01Z</time>
      </trkpt>
      <trkpt lat="44.57554" lon="1.57374">
        <ele>363</ele>
        <time>2019-07-05T18:43:14Z</time>
      </trkpt>
      <trkpt lat="44.57548" lon="1.57379">
        <ele>367</ele>
        <time>2019-07-05T18:43:28Z</time>
      </trkpt>
      <trkpt lat="44.57546" lon="1.5738">
        <ele>366</ele>
        <time>2019-07-05T18:43:44Z</time>
      </trkpt>
      <trkpt lat="44.57542" lon="1.57384">
        <ele>367</ele>
        <time>2019-07-05T18:43:58Z</time>
      </trkpt>
      <trkpt lat="44.57544" lon="1.57382">
        <ele>366</ele>
        <time>2019-07-05T18:44:15Z</time>
      </trkpt>
      <trkpt lat="44.57544" lon="1.57383">
        <ele>366</ele>
        <time>2019-07-05T18:44:32Z</time>
      </trkpt>
      <trkpt lat="44.57541" lon="1.57378">
        <ele>366</ele>
        <time>2019-07-05T18:44:50Z</time>
      </trkpt>
      <trkpt lat="44.57538" lon="1.57385">
        <ele>365</ele>
        <time>2019-07-05T18:45:11Z</time>
      </trkpt>
      <trkpt lat="44.57531" lon="1.57394">
        <ele>364</ele>
        <time>2019-07-05T18:45:28Z</time>
      </trkpt>
      <trkpt lat="44.5752" lon="1.57408">
        <ele>364</ele>
        <time>2019-07-05T18:45:44Z</time>
      </trkpt>
      <trkpt lat="44.57513" lon="1.57421">
        <ele>365</ele>
        <time>2019-07-05T18:45:59Z</time>
      </trkpt>
      <trkpt lat="44.57505" lon="1.57436">
        <ele>366</ele>
        <time>2019-07-05T18:46:15Z</time>
      </trkpt>
      <trkpt lat="44.57499" lon="1.57444">
        <ele>369</ele>
        <time>2019-07-05T18:46:30Z</time>
      </trkpt>
      <trkpt lat="44.57492" lon="1.57448">
        <ele>368</ele>
        <time>2019-07-05T18:46:45Z</time>
      </trkpt>
      <trkpt lat="44.5748" lon="1.57453">
        <ele>368</ele>
        <time>2019-07-05T18:46:59Z</time>
      </trkpt>
      <trkpt lat="44.57471" lon="1.57464">
        <ele>368</ele>
        <time>2019-07-05T18:47:13Z</time>
      </trkpt>
      <trkpt lat="44.57465" lon="1.57481">
        <ele>372</ele>
        <time>2019-07-05T18:47:28Z</time>
      </trkpt>
      <trkpt lat="44.57469" lon="1.57501">
        <ele>375</ele>
        <time>2019-07-05T18:47:44Z</time>
      </trkpt>
      <trkpt lat="44.57472" lon="1.57507">
        <ele>376</ele>
        <time>2019-07-05T18:47:50Z</time>
      </trkpt>
      <trkpt lat="44.57483" lon="1.57527">
        <ele>377</ele>
        <time>2019-07-05T18:48:07Z</time>
      </trkpt>
      <trkpt lat="44.57485" lon="1.57535">
        <ele>378</ele>
        <time>2019-07-05T18:48:14Z</time>
      </trkpt>
      <trkpt lat="44.57483" lon="1.57561">
        <ele>379</ele>
        <time>2019-07-05T18:48:30Z</time>
      </trkpt>
      <trkpt lat="44.57483" lon="1.57585">
        <ele>378</ele>
        <time>2019-07-05T18:48:47Z</time>
      </trkpt>
      <trkpt lat="44.57481" lon="1.57611">
        <ele>381</ele>
        <time>2019-07-05T18:49:04Z</time>
      </trkpt>
      <trkpt lat="44.57482" lon="1.57631">
        <ele>380</ele>
        <time>2019-07-05T18:49:19Z</time>
      </trkpt>
      <trkpt lat="44.5748" lon="1.57651">
        <ele>380</ele>
        <time>2019-07-05T18:49:33Z</time>
      </trkpt>
      <trkpt lat="44.57478" lon="1.57663">
        <ele>380</ele>
        <time>2019-07-05T18:49:42Z</time>
      </trkpt>
      <trkpt lat="44.57474" lon="1.57664">
        <ele>380</ele>
        <time>2019-07-05T18:49:45Z</time>
      </trkpt>
      <trkpt lat="44.57464" lon="1.57651">
        <ele>378</ele>
        <time>2019-07-05T18:49:57Z</time>
      </trkpt>
      <trkpt lat="44.57449" lon="1.57638">
        <ele>381</ele>
        <time>2019-07-05T18:50:13Z</time>
      </trkpt>
      <trkpt lat="44.57448" lon="1.57638">
        <ele>381</ele>
        <time>2019-07-05T18:50:14Z</time>
      </trkpt>
      <trkpt lat="44.57433" lon="1.57648">
        <ele>383</ele>
        <time>2019-07-05T18:50:29Z</time>
      </trkpt>
      <trkpt lat="44.57417" lon="1.57665">
        <ele>382</ele>
        <time>2019-07-05T18:50:46Z</time>
      </trkpt>
      <trkpt lat="44.57404" lon="1.57678">
        <ele>380</ele>
        <time>2019-07-05T18:51:00Z</time>
      </trkpt>
      <trkpt lat="44.5739" lon="1.57693">
        <ele>379</ele>
        <time>2019-07-05T18:51:15Z</time>
      </trkpt>
      <trkpt lat="44.57373" lon="1.57709">
        <ele>378</ele>
        <time>2019-07-05T18:51:31Z</time>
      </trkpt>
      <trkpt lat="44.57355" lon="1.57722">
        <ele>377</ele>
        <time>2019-07-05T18:51:46Z</time>
      </trkpt>
      <trkpt lat="44.57336" lon="1.57735">
        <ele>376</ele>
        <time>2019-07-05T18:52:02Z</time>
      </trkpt>
      <trkpt lat="44.57315" lon="1.57753">
        <ele>377</ele>
        <time>2019-07-05T18:52:22Z</time>
      </trkpt>
      <trkpt lat="44.57302" lon="1.57765">
        <ele>379</ele>
        <time>2019-07-05T18:52:34Z</time>
      </trkpt>
      <trkpt lat="44.57286" lon="1.5778">
        <ele>379</ele>
        <time>2019-07-05T18:52:49Z</time>
      </trkpt>
      <trkpt lat="44.57271" lon="1.57794">
        <ele>379</ele>
        <time>2019-07-05T18:53:05Z</time>
      </trkpt>
      <trkpt lat="44.57259" lon="1.57804">
        <ele>379</ele>
        <time>2019-07-05T18:53:17Z</time>
      </trkpt>
      <trkpt lat="44.57256" lon="1.57806">
        <ele>379</ele>
        <time>2019-07-05T18:53:19Z</time>
      </trkpt>
      <trkpt lat="44.57247" lon="1.57813">
        <ele>380</ele>
        <time>2019-07-05T18:53:27Z</time>
      </trkpt>
      <trkpt lat="44.5723" lon="1.5783">
        <ele>379</ele>
        <time>2019-07-05T18:53:44Z</time>
      </trkpt>
      <trkpt lat="44.5722" lon="1.57838">
        <ele>379</ele>
        <time>2019-07-05T18:53:57Z</time>
      </trkpt>
      <trkpt lat="44.57218" lon="1.5784">
        <ele>378</ele>
        <time>2019-07-05T18:53:59Z</time>
      </trkpt>
      <trkpt lat="44.57213" lon="1.57843">
        <ele>377</ele>
        <time>2019-07-05T18:54:04Z</time>
      </trkpt>
      <trkpt lat="44.57205" lon="1.57855">
        <ele>378</ele>
        <time>2019-07-05T18:54:14Z</time>
      </trkpt>
      <trkpt lat="44.57202" lon="1.57858">
        <ele>377</ele>
        <time>2019-07-05T18:54:17Z</time>
      </trkpt>
      <trkpt lat="44.572" lon="1.57861">
        <ele>377</ele>
        <time>2019-07-05T18:54:19Z</time>
      </trkpt>
      <trkpt lat="44.57189" lon="1.57874">
        <ele>378</ele>
        <time>2019-07-05T18:54:34Z</time>
      </trkpt>
      <trkpt lat="44.57186" lon="1.57881">
        <ele>378</ele>
        <time>2019-07-05T18:54:40Z</time>
      </trkpt>
      <trkpt lat="44.57181" lon="1.57891">
        <ele>376</ele>
        <time>2019-07-05T18:54:46Z</time>
      </trkpt>
      <trkpt lat="44.57178" lon="1.57899">
        <ele>377</ele>
        <time>2019-07-05T18:54:51Z</time>
      </trkpt>
      <trkpt lat="44.57171" lon="1.57911">
        <ele>376</ele>
        <time>2019-07-05T18:55:01Z</time>
      </trkpt>
      <trkpt lat="44.57167" lon="1.57916">
        <ele>374</ele>
        <time>2019-07-05T18:55:08Z</time>
      </trkpt>
      <trkpt lat="44.57156" lon="1.57927">
        <ele>373</ele>
        <time>2019-07-05T18:55:21Z</time>
      </trkpt>
      <trkpt lat="44.57153" lon="1.57933">
        <ele>373</ele>
        <time>2019-07-05T18:55:25Z</time>
      </trkpt>
      <trkpt lat="44.57147" lon="1.57941">
        <ele>374</ele>
        <time>2019-07-05T18:55:36Z</time>
      </trkpt>
      <trkpt lat="44.5714" lon="1.57947">
        <ele>373</ele>
        <time>2019-07-05T18:55:49Z</time>
      </trkpt>
      <trkpt lat="44.57136" lon="1.5795">
        <ele>371</ele>
        <time>2019-07-05T18:56:04Z</time>
      </trkpt>
      <trkpt lat="44.57133" lon="1.5795">
        <ele>370</ele>
        <time>2019-07-05T18:56:18Z</time>
      </trkpt>
      <trkpt lat="44.57133" lon="1.57956">
        <ele>369</ele>
        <time>2019-07-05T18:56:35Z</time>
      </trkpt>
      <trkpt lat="44.57131" lon="1.57954">
        <ele>368</ele>
        <time>2019-07-05T18:57:03Z</time>
      </trkpt>
      <trkpt lat="44.57129" lon="1.57954">
        <ele>367</ele>
        <time>2019-07-05T18:57:17Z</time>
      </trkpt>
      <trkpt lat="44.57126" lon="1.57958">
        <ele>366</ele>
        <time>2019-07-05T18:57:37Z</time>
      </trkpt>
      <trkpt lat="44.57122" lon="1.5796">
        <ele>367</ele>
        <time>2019-07-05T18:58:01Z</time>
      </trkpt>
      <trkpt lat="44.5712" lon="1.57962">
        <ele>366</ele>
        <time>2019-07-05T18:58:13Z</time>
      </trkpt>
      <trkpt lat="44.57103" lon="1.57973">
        <ele>362</ele>
        <time>2019-07-05T18:58:30Z</time>
      </trkpt>
      <trkpt lat="44.57091" lon="1.57979">
        <ele>358</ele>
        <time>2019-07-05T18:58:43Z</time>
      </trkpt>
      <trkpt lat="44.57071" lon="1.57992">
        <ele>357</ele>
        <time>2019-07-05T18:59:00Z</time>
      </trkpt>
      <trkpt lat="44.57055" lon="1.58002">
        <ele>360</ele>
        <time>2019-07-05T18:59:14Z</time>
      </trkpt>
      <trkpt lat="44.57034" lon="1.58009">
        <ele>358</ele>
        <time>2019-07-05T18:59:31Z</time>
      </trkpt>
      <trkpt lat="44.57019" lon="1.58007">
        <ele>357</ele>
        <time>2019-07-05T18:59:44Z</time>
      </trkpt>
      <trkpt lat="44.57001" lon="1.58005">
        <ele>353</ele>
        <time>2019-07-05T18:59:59Z</time>
      </trkpt>
      <trkpt lat="44.56981" lon="1.58005">
        <ele>349</ele>
        <time>2019-07-05T19:00:17Z</time>
      </trkpt>
      <trkpt lat="44.56963" lon="1.58001">
        <ele>344</ele>
        <time>2019-07-05T19:00:33Z</time>
      </trkpt>
      <trkpt lat="44.56944" lon="1.57991">
        <ele>343</ele>
        <time>2019-07-05T19:00:49Z</time>
      </trkpt>
      <trkpt lat="44.56928" lon="1.57972">
        <ele>343</ele>
        <time>2019-07-05T19:01:06Z</time>
      </trkpt>
      <trkpt lat="44.56917" lon="1.57957">
        <ele>345</ele>
        <time>2019-07-05T19:01:24Z</time>
      </trkpt>
      <trkpt lat="44.56916" lon="1.5795">
        <ele>345</ele>
        <time>2019-07-05T19:01:41Z</time>
      </trkpt>
      <trkpt lat="44.56915" lon="1.57949">
        <ele>345</ele>
        <time>2019-07-05T19:02:00Z</time>
      </trkpt>
      <trkpt lat="44.56913" lon="1.57946">
        <ele>345</ele>
        <time>2019-07-05T19:02:17Z</time>
      </trkpt>
      <trkpt lat="44.5691" lon="1.57946">
        <ele>346</ele>
        <time>2019-07-05T19:02:40Z</time>
      </trkpt>
      <trkpt lat="44.5691" lon="1.57949">
        <ele>347</ele>
        <time>2019-07-05T19:03:10Z</time>
      </trkpt>
      <trkpt lat="44.56906" lon="1.57951">
        <ele>352</ele>
        <time>2019-07-05T19:03:34Z</time>
      </trkpt>
      <trkpt lat="44.56906" lon="1.57948">
        <ele>351</ele>
        <time>2019-07-05T19:04:01Z</time>
      </trkpt>
      <trkpt lat="44.56906" lon="1.57946">
        <ele>350</ele>
        <time>2019-07-05T19:04:30Z</time>
      </trkpt>
      <trkpt lat="44.56913" lon="1.57932">
        <ele>346</ele>
        <time>2019-07-05T19:04:51Z</time>
      </trkpt>
      <trkpt lat="44.56912" lon="1.57927">
        <ele>345</ele>
        <time>2019-07-05T19:05:09Z</time>
      </trkpt>
      <trkpt lat="44.5691" lon="1.57934">
        <ele>344</ele>
        <time>2019-07-05T19:05:20Z</time>
      </trkpt>
      <trkpt lat="44.56908" lon="1.57942">
        <ele>343</ele>
        <time>2019-07-05T19:05:41Z</time>
      </trkpt>
      <trkpt lat="44.56909" lon="1.57938">
        <ele>342</ele>
        <time>2019-07-05T19:05:59Z</time>
      </trkpt>
      <trkpt lat="44.5691" lon="1.57936">
        <ele>341</ele>
        <time>2019-07-05T19:06:19Z</time>
      </trkpt>
      <trkpt lat="44.56915" lon="1.57937">
        <ele>341</ele>
        <time>2019-07-05T19:06:46Z</time>
      </trkpt>
      <trkpt lat="44.56915" lon="1.57935">
        <ele>342</ele>
        <time>2019-07-05T19:07:19Z</time>
      </trkpt>
      <trkpt lat="44.56915" lon="1.57932">
        <ele>344</ele>
        <time>2019-07-05T19:07:46Z</time>
      </trkpt>
      <trkpt lat="44.56914" lon="1.57933">
        <ele>345</ele>
        <time>2019-07-05T19:08:09Z</time>
      </trkpt>
      <trkpt lat="44.56915" lon="1.57935">
        <ele>345</ele>
        <time>2019-07-05T19:08:48Z</time>
      </trkpt>
      <trkpt lat="44.56914" lon="1.57933">
        <ele>346</ele>
        <time>2019-07-05T19:09:19Z</time>
      </trkpt>
      <trkpt lat="44.56915" lon="1.57933">
        <ele>344</ele>
        <time>2019-07-05T19:09:50Z</time>
      </trkpt>
      <trkpt lat="44.56916" lon="1.57937">
        <ele>340</ele>
        <time>2019-07-05T19:10:23Z</time>
      </trkpt>
      <trkpt lat="44.56917" lon="1.57943">
        <ele>338</ele>
        <time>2019-07-05T19:10:54Z</time>
      </trkpt>
      <trkpt lat="44.56918" lon="1.57941">
        <ele>337</ele>
        <time>2019-07-05T19:11:25Z</time>
      </trkpt>
      <trkpt lat="44.56916" lon="1.57936">
        <ele>339</ele>
        <time>2019-07-05T19:11:53Z</time>
      </trkpt>
      <trkpt lat="44.56915" lon="1.57933">
        <ele>335</ele>
        <time>2019-07-05T19:12:23Z</time>
      </trkpt>
      <trkpt lat="44.56916" lon="1.57928">
        <ele>336</ele>
        <time>2019-07-05T19:12:55Z</time>
      </trkpt>
      <trkpt lat="44.56912" lon="1.57926">
        <ele>336</ele>
        <time>2019-07-05T19:13:27Z</time>
      </trkpt>
      <trkpt lat="44.56914" lon="1.57931">
        <ele>340</ele>
        <time>2019-07-05T19:14:01Z</time>
      </trkpt>
      <trkpt lat="44.56916" lon="1.57934">
        <ele>339</ele>
        <time>2019-07-05T19:14:27Z</time>
      </trkpt>
      <trkpt lat="44.56915" lon="1.57936">
        <ele>338</ele>
        <time>2019-07-05T19:14:53Z</time>
      </trkpt>
      <trkpt lat="44.56914" lon="1.57939">
        <ele>338</ele>
        <time>2019-07-05T19:15:25Z</time>
      </trkpt>
      <trkpt lat="44.56912" lon="1.57936">
        <ele>343</ele>
        <time>2019-07-05T19:16:03Z</time>
      </trkpt>
      <trkpt lat="44.56913" lon="1.57934">
        <ele>339</ele>
        <time>2019-07-05T19:16:34Z</time>
      </trkpt>
      <trkpt lat="44.56914" lon="1.57932">
        <ele>330</ele>
        <time>2019-07-05T19:17:04Z</time>
      </trkpt>
      <trkpt lat="44.56914" lon="1.57937">
        <ele>331</ele>
        <time>2019-07-05T19:17:36Z</time>
      </trkpt>
      <trkpt lat="44.56914" lon="1.57934">
        <ele>334</ele>
        <time>2019-07-05T19:18:07Z</time>
      </trkpt>
      <trkpt lat="44.56911" lon="1.57931">
        <ele>340</ele>
        <time>2019-07-05T19:18:39Z</time>
      </trkpt>
      <trkpt lat="44.56912" lon="1.57943">
        <ele>345</ele>
        <time>2019-07-05T19:19:00Z</time>
      </trkpt>
      <trkpt lat="44.56914" lon="1.57937">
        <ele>344</ele>
        <time>2019-07-05T19:19:18Z</time>
      </trkpt>
      <trkpt lat="44.56911" lon="1.57939">
        <ele>343</ele>
        <time>2019-07-05T19:19:51Z</time>
      </trkpt>
      <trkpt lat="44.56912" lon="1.57936">
        <ele>345</ele>
        <time>2019-07-05T19:20:30Z</time>
      </trkpt>
      <trkpt lat="44.56913" lon="1.57937">
        <ele>347</ele>
        <time>2019-07-05T19:21:03Z</time>
      </trkpt>
      <trkpt lat="44.56916" lon="1.5794">
        <ele>347</ele>
        <time>2019-07-05T19:21:40Z</time>
      </trkpt>
      <trkpt lat="44.56914" lon="1.57937">
        <ele>345</ele>
        <time>2019-07-05T19:22:19Z</time>
      </trkpt>
      <trkpt lat="44.56913" lon="1.57935">
        <ele>345</ele>
        <time>2019-07-05T19:22:59Z</time>
      </trkpt>
      <trkpt lat="44.56914" lon="1.57936">
        <ele>346</ele>
        <time>2019-07-05T19:23:37Z</time>
      </trkpt>
      <trkpt lat="44.56912" lon="1.57939">
        <ele>344</ele>
        <time>2019-07-05T19:24:10Z</time>
      </trkpt>
      <trkpt lat="44.56909" lon="1.57935">
        <ele>346</ele>
        <time>2019-07-05T19:24:41Z</time>
      </trkpt>
      <trkpt lat="44.5691" lon="1.57938">
        <ele>347</ele>
        <time>2019-07-05T19:25:09Z</time>
      </trkpt>
      <trkpt lat="44.56914" lon="1.57935">
        <ele>346</ele>
        <time>2019-07-05T19:25:37Z</time>
      </trkpt>
      <trkpt lat="44.56921" lon="1.57937">
        <ele>341</ele>
        <time>2019-07-05T19:26:14Z</time>
      </trkpt>
      <trkpt lat="44.56918" lon="1.57936">
        <ele>341</ele>
        <time>2019-07-05T19:26:58Z</time>
      </trkpt>
      <trkpt lat="44.56912" lon="1.57937">
        <ele>340</ele>
        <time>2019-07-05T19:27:39Z</time>
      </trkpt>
      <trkpt lat="44.56912" lon="1.57933">
        <ele>344</ele>
        <time>2019-07-05T19:28:21Z</time>
      </trkpt>
      <trkpt lat="44.56911" lon="1.57938">
        <ele>344</ele>
        <time>2019-07-05T19:28:56Z</time>
      </trkpt>
      <trkpt lat="44.56915" lon="1.57941">
        <ele>344</ele>
        <time>2019-07-05T19:29:38Z</time>
      </trkpt>
      <trkpt lat="44.56916" lon="1.57937">
        <ele>340</ele>
        <time>2019-07-05T19:30:11Z</time>
      </trkpt>
      <trkpt lat="44.56916" lon="1.57936">
        <ele>339</ele>
        <time>2019-07-05T19:30:48Z</time>
      </trkpt>
      <trkpt lat="44.56915" lon="1.57938">
        <ele>342</ele>
        <time>2019-07-05T19:31:21Z</time>
      </trkpt>
      <trkpt lat="44.56914" lon="1.57936">
        <ele>345</ele>
        <time>2019-07-05T19:31:55Z</time>
      </trkpt>
      <trkpt lat="44.56916" lon="1.57934">
        <ele>348</ele>
        <time>2019-07-05T19:32:19Z</time>
      </trkpt>
      <trkpt lat="44.56914" lon="1.57935">
        <ele>348</ele>
        <time>2019-07-05T19:32:49Z</time>
      </trkpt>
      <trkpt lat="44.56913" lon="1.57934">
        <ele>348</ele>
        <time>2019-07-05T19:33:18Z</time>
      </trkpt>
      <trkpt lat="44.56917" lon="1.57929">
        <ele>346</ele>
        <time>2019-07-05T19:33:52Z</time>
      </trkpt>
      <trkpt lat="44.56918" lon="1.57929">
        <ele>348</ele>
        <time>2019-07-05T19:34:23Z</time>
      </trkpt>
      <trkpt lat="44.56914" lon="1.57932">
        <ele>350</ele>
        <time>2019-07-05T19:35:01Z</time>
      </trkpt>
      <trkpt lat="44.56913" lon="1.57934">
        <ele>350</ele>
        <time>2019-07-05T19:35:42Z</time>
      </trkpt>
      <trkpt lat="44.56914" lon="1.57937">
        <ele>348</ele>
        <time>2019-07-05T19:36:08Z</time>
      </trkpt>
      <trkpt lat="44.56916" lon="1.57936">
        <ele>345</ele>
        <time>2019-07-05T19:36:35Z</time>
      </trkpt>
      <trkpt lat="44.56916" lon="1.57945">
        <ele>345</ele>
        <time>2019-07-05T19:36:54Z</time>
      </trkpt>
      <trkpt lat="44.56915" lon="1.57947">
        <ele>345</ele>
        <time>2019-07-05T19:37:11Z</time>
      </trkpt>
      <trkpt lat="44.56918" lon="1.5796">
        <ele>344</ele>
        <time>2019-07-05T19:37:23Z</time>
      </trkpt>
      <trkpt lat="44.56912" lon="1.57969">
        <ele>345</ele>
        <time>2019-07-05T19:37:36Z</time>
      </trkpt>
      <trkpt lat="44.56913" lon="1.57975">
        <ele>345</ele>
        <time>2019-07-05T19:37:47Z</time>
      </trkpt>
      <trkpt lat="44.56909" lon="1.57979">
        <ele>346</ele>
        <time>2019-07-05T19:38:01Z</time>
      </trkpt>
      <trkpt lat="44.56907" lon="1.57984">
        <ele>347</ele>
        <time>2019-07-05T19:38:15Z</time>
      </trkpt>
      <trkpt lat="44.56903" lon="1.57988">
        <ele>347</ele>
        <time>2019-07-05T19:38:30Z</time>
      </trkpt>
      <trkpt lat="44.56897" lon="1.57988">
        <ele>347</ele>
        <time>2019-07-05T19:38:45Z</time>
      </trkpt>
      <trkpt lat="44.56908" lon="1.57994">
        <ele>346</ele>
        <time>2019-07-05T19:38:58Z</time>
      </trkpt>
      <trkpt lat="44.56907" lon="1.58004">
        <ele>347</ele>
        <time>2019-07-05T19:39:10Z</time>
      </trkpt>
      <trkpt lat="44.56904" lon="1.58012">
        <ele>347</ele>
        <time>2019-07-05T19:39:24Z</time>
      </trkpt>
      <trkpt lat="44.56903" lon="1.58018">
        <ele>347</ele>
        <time>2019-07-05T19:39:29Z</time>
      </trkpt>
      <trkpt lat="44.56893" lon="1.58043">
        <ele>344</ele>
        <time>2019-07-05T19:39:49Z</time>
      </trkpt>
      <trkpt lat="44.56891" lon="1.58046">
        <ele>344</ele>
        <time>2019-07-05T19:39:52Z</time>
      </trkpt>
      <trkpt lat="44.56878" lon="1.5806">
        <ele>343</ele>
        <time>2019-07-05T19:40:10Z</time>
      </trkpt>
      <trkpt lat="44.56868" lon="1.58075">
        <ele>344</ele>
        <time>2019-07-05T19:40:26Z</time>
      </trkpt>
      <trkpt lat="44.56867" lon="1.58076">
        <ele>343</ele>
        <time>2019-07-05T19:40:27Z</time>
      </trkpt>
      <trkpt lat="44.56865" lon="1.58088">
        <ele>342</ele>
        <time>2019-07-05T19:40:35Z</time>
      </trkpt>
      <trkpt lat="44.56861" lon="1.58112">
        <ele>340</ele>
        <time>2019-07-05T19:40:50Z</time>
      </trkpt>
      <trkpt lat="44.56859" lon="1.58142">
        <ele>343</ele>
        <time>2019-07-05T19:41:05Z</time>
      </trkpt>
      <trkpt lat="44.5685" lon="1.5817">
        <ele>344</ele>
        <time>2019-07-05T19:41:24Z</time>
      </trkpt>
      <trkpt lat="44.56844" lon="1.58192">
        <ele>342</ele>
        <time>2019-07-05T19:41:41Z</time>
      </trkpt>
      <trkpt lat="44.56847" lon="1.58202">
        <ele>343</ele>
        <time>2019-07-05T19:41:47Z</time>
      </trkpt>
      <trkpt lat="44.56858" lon="1.58202">
        <ele>340</ele>
        <time>2019-07-05T19:42:01Z</time>
      </trkpt>
      <trkpt lat="44.56874" lon="1.58206">
        <ele>336</ele>
        <time>2019-07-05T19:42:15Z</time>
      </trkpt>
      <trkpt lat="44.56892" lon="1.58212">
        <ele>335</ele>
        <time>2019-07-05T19:42:31Z</time>
      </trkpt>
      <trkpt lat="44.56912" lon="1.58219">
        <ele>334</ele>
        <time>2019-07-05T19:42:48Z</time>
      </trkpt>
      <trkpt lat="44.56935" lon="1.58234">
        <ele>334</ele>
        <time>2019-07-05T19:43:08Z</time>
      </trkpt>
      <trkpt lat="44.56954" lon="1.58251">
        <ele>333</ele>
        <time>2019-07-05T19:43:26Z</time>
      </trkpt>
      <trkpt lat="44.56973" lon="1.58268">
        <ele>333</ele>
        <time>2019-07-05T19:43:46Z</time>
      </trkpt>
      <trkpt lat="44.56979" lon="1.5828">
        <ele>333</ele>
        <time>2019-07-05T19:44:03Z</time>
      </trkpt>
      <trkpt lat="44.56995" lon="1.58302">
        <ele>334</ele>
        <time>2019-07-05T19:44:21Z</time>
      </trkpt>
      <trkpt lat="44.57007" lon="1.58316">
        <ele>334</ele>
        <time>2019-07-05T19:44:38Z</time>
      </trkpt>
      <trkpt lat="44.57024" lon="1.58326">
        <ele>334</ele>
        <time>2019-07-05T19:44:54Z</time>
      </trkpt>
      <trkpt lat="44.57036" lon="1.58333">
        <ele>333</ele>
        <time>2019-07-05T19:45:04Z</time>
      </trkpt>
      <trkpt lat="44.57051" lon="1.58338">
        <ele>333</ele>
        <time>2019-07-05T19:45:19Z</time>
      </trkpt>
      <trkpt lat="44.57074" lon="1.58345">
        <ele>334</ele>
        <time>2019-07-05T19:45:37Z</time>
      </trkpt>
      <trkpt lat="44.57088" lon="1.58352">
        <ele>336</ele>
        <time>2019-07-05T19:45:51Z</time>
      </trkpt>
      <trkpt lat="44.571" lon="1.58362">
        <ele>337</ele>
        <time>2019-07-05T19:46:08Z</time>
      </trkpt>
      <trkpt lat="44.57109" lon="1.58374">
        <ele>339</ele>
        <time>2019-07-05T19:46:24Z</time>
      </trkpt>
      <trkpt lat="44.57115" lon="1.58389">
        <ele>339</ele>
        <time>2019-07-05T19:46:39Z</time>
      </trkpt>
      <trkpt lat="44.57121" lon="1.58401">
        <ele>341</ele>
        <time>2019-07-05T19:46:52Z</time>
      </trkpt>
      <trkpt lat="44.57134" lon="1.58409">
        <ele>345</ele>
        <time>2019-07-05T19:47:06Z</time>
      </trkpt>
      <trkpt lat="44.5715" lon="1.584">
        <ele>347</ele>
        <time>2019-07-05T19:47:22Z</time>
      </trkpt>
      <trkpt lat="44.57167" lon="1.58391">
        <ele>348</ele>
        <time>2019-07-05T19:47:38Z</time>
      </trkpt>
      <trkpt lat="44.57171" lon="1.58391">
        <ele>347</ele>
        <time>2019-07-05T19:47:42Z</time>
      </trkpt>
      <trkpt lat="44.57191" lon="1.58392">
        <ele>344</ele>
        <time>2019-07-05T19:48:00Z</time>
      </trkpt>
      <trkpt lat="44.57211" lon="1.58393">
        <ele>344</ele>
        <time>2019-07-05T19:48:16Z</time>
      </trkpt>
      <trkpt lat="44.57235" lon="1.58387">
        <ele>343</ele>
        <time>2019-07-05T19:48:34Z</time>
      </trkpt>
      <trkpt lat="44.57261" lon="1.58378">
        <ele>345</ele>
        <time>2019-07-05T19:48:55Z</time>
      </trkpt>
      <trkpt lat="44.57284" lon="1.58371">
        <ele>343</ele>
        <time>2019-07-05T19:49:15Z</time>
      </trkpt>
      <trkpt lat="44.57311" lon="1.58369">
        <ele>345</ele>
        <time>2019-07-05T19:49:37Z</time>
      </trkpt>
      <trkpt lat="44.57331" lon="1.58356">
        <ele>348</ele>
        <time>2019-07-05T19:49:55Z</time>
      </trkpt>
      <trkpt lat="44.5734" lon="1.58348">
        <ele>350</ele>
        <time>2019-07-05T19:50:11Z</time>
      </trkpt>
      <trkpt lat="44.57353" lon="1.58347">
        <ele>351</ele>
        <time>2019-07-05T19:50:25Z</time>
      </trkpt>
      <trkpt lat="44.57358" lon="1.58347">
        <ele>352</ele>
        <time>2019-07-05T19:50:30Z</time>
      </trkpt>
      <trkpt lat="44.57369" lon="1.58325">
        <ele>354</ele>
        <time>2019-07-05T19:50:47Z</time>
      </trkpt>
      <trkpt lat="44.57382" lon="1.58306">
        <ele>356</ele>
        <time>2019-07-05T19:51:04Z</time>
      </trkpt>
      <trkpt lat="44.57398" lon="1.58287">
        <ele>359</ele>
        <time>2019-07-05T19:51:22Z</time>
      </trkpt>
      <trkpt lat="44.57399" lon="1.58283">
        <ele>359</ele>
        <time>2019-07-05T19:51:25Z</time>
      </trkpt>
      <trkpt lat="44.57402" lon="1.5828">
        <ele>360</ele>
        <time>2019-07-05T19:51:29Z</time>
      </trkpt>
      <trkpt lat="44.57416" lon="1.58259">
        <ele>362</ele>
        <time>2019-07-05T19:51:49Z</time>
      </trkpt>
      <trkpt lat="44.57425" lon="1.58261">
        <ele>361</ele>
        <time>2019-07-05T19:52:03Z</time>
      </trkpt>
      <trkpt lat="44.57443" lon="1.58265">
        <ele>358</ele>
        <time>2019-07-05T19:52:19Z</time>
      </trkpt>
      <trkpt lat="44.57457" lon="1.5826">
        <ele>354</ele>
        <time>2019-07-05T19:52:33Z</time>
      </trkpt>
      <trkpt lat="44.57466" lon="1.58249">
        <ele>352</ele>
        <time>2019-07-05T19:52:46Z</time>
      </trkpt>
      <trkpt lat="44.57476" lon="1.58233">
        <ele>355</ele>
        <time>2019-07-05T19:52:59Z</time>
      </trkpt>
      <trkpt lat="44.57486" lon="1.58211">
        <ele>359</ele>
        <time>2019-07-05T19:53:15Z</time>
      </trkpt>
      <trkpt lat="44.57494" lon="1.58201">
        <ele>362</ele>
        <time>2019-07-05T19:53:24Z</time>
      </trkpt>
      <trkpt lat="44.57502" lon="1.58181">
        <ele>365</ele>
        <time>2019-07-05T19:53:40Z</time>
      </trkpt>
      <trkpt lat="44.57509" lon="1.58162">
        <ele>367</ele>
        <time>2019-07-05T19:53:53Z</time>
      </trkpt>
      <trkpt lat="44.5752" lon="1.58148">
        <ele>369</ele>
        <time>2019-07-05T19:54:08Z</time>
      </trkpt>
      <trkpt lat="44.57533" lon="1.58132">
        <ele>371</ele>
        <time>2019-07-05T19:54:23Z</time>
      </trkpt>
      <trkpt lat="44.5754" lon="1.58118">
        <ele>372</ele>
        <time>2019-07-05T19:54:36Z</time>
      </trkpt>
      <trkpt lat="44.57543" lon="1.58113">
        <ele>372</ele>
        <time>2019-07-05T19:54:41Z</time>
      </trkpt>
      <trkpt lat="44.57555" lon="1.58086">
        <ele>376</ele>
        <time>2019-07-05T19:54:58Z</time>
      </trkpt>
      <trkpt lat="44.57562" lon="1.5807">
        <ele>376</ele>
        <time>2019-07-05T19:55:14Z</time>
      </trkpt>
      <trkpt lat="44.57573" lon="1.58059">
        <ele>375</ele>
        <time>2019-07-05T19:55:28Z</time>
      </trkpt>
      <trkpt lat="44.57583" lon="1.58044">
        <ele>372</ele>
        <time>2019-07-05T19:55:40Z</time>
      </trkpt>
      <trkpt lat="44.57587" lon="1.58027">
        <ele>370</ele>
        <time>2019-07-05T19:55:53Z</time>
      </trkpt>
      <trkpt lat="44.57595" lon="1.58007">
        <ele>364</ele>
        <time>2019-07-05T19:56:08Z</time>
      </trkpt>
      <trkpt lat="44.57605" lon="1.57991">
        <ele>364</ele>
        <time>2019-07-05T19:56:21Z</time>
      </trkpt>
      <trkpt lat="44.57618" lon="1.5798">
        <ele>366</ele>
        <time>2019-07-05T19:56:37Z</time>
      </trkpt>
      <trkpt lat="44.57629" lon="1.57972">
        <ele>367</ele>
        <time>2019-07-05T19:56:54Z</time>
      </trkpt>
      <trkpt lat="44.57642" lon="1.57965">
        <ele>368</ele>
        <time>2019-07-05T19:57:09Z</time>
      </trkpt>
      <trkpt lat="44.57652" lon="1.57959">
        <ele>371</ele>
        <time>2019-07-05T19:57:22Z</time>
      </trkpt>
      <trkpt lat="44.57666" lon="1.57951">
        <ele>371</ele>
        <time>2019-07-05T19:57:39Z</time>
      </trkpt>
      <trkpt lat="44.5768" lon="1.57947">
        <ele>376</ele>
        <time>2019-07-05T19:57:53Z</time>
      </trkpt>
      <trkpt lat="44.57696" lon="1.57944">
        <ele>379</ele>
        <time>2019-07-05T19:58:09Z</time>
      </trkpt>
      <trkpt lat="44.57702" lon="1.57938">
        <ele>376</ele>
        <time>2019-07-05T19:58:23Z</time>
      </trkpt>
      <trkpt lat="44.5771" lon="1.57928">
        <ele>374</ele>
        <time>2019-07-05T19:58:36Z</time>
      </trkpt>
      <trkpt lat="44.57721" lon="1.57914">
        <ele>375</ele>
        <time>2019-07-05T19:58:49Z</time>
      </trkpt>
      <trkpt lat="44.57742" lon="1.57893">
        <ele>378</ele>
        <time>2019-07-05T19:59:08Z</time>
      </trkpt>
      <trkpt lat="44.57755" lon="1.57872">
        <ele>380</ele>
        <time>2019-07-05T19:59:24Z</time>
      </trkpt>
      <trkpt lat="44.57763" lon="1.57864">
        <ele>377</ele>
        <time>2019-07-05T19:59:36Z</time>
      </trkpt>
      <trkpt lat="44.5777" lon="1.57894">
        <ele>375</ele>
        <time>2019-07-05T19:59:56Z</time>
      </trkpt>
      <trkpt lat="44.57775" lon="1.57912">
        <ele>374</ele>
        <time>2019-07-05T20:00:11Z</time>
      </trkpt>
      <trkpt lat="44.57783" lon="1.5793">
        <ele>374</ele>
        <time>2019-07-05T20:00:27Z</time>
      </trkpt>
      <trkpt lat="44.57784" lon="1.57932">
        <ele>374</ele>
        <time>2019-07-05T20:00:29Z</time>
      </trkpt>
      <trkpt lat="44.57791" lon="1.57956">
        <ele>376</ele>
        <time>2019-07-05T20:00:46Z</time>
      </trkpt>
      <trkpt lat="44.57793" lon="1.57966">
        <ele>376</ele>
        <time>2019-07-05T20:00:57Z</time>
      </trkpt>
      <trkpt lat="44.57796" lon="1.57999">
        <ele>373</ele>
        <time>2019-07-05T20:01:17Z</time>
      </trkpt>
      <trkpt lat="44.57792" lon="1.58009">
        <ele>372</ele>
        <time>2019-07-05T20:01:23Z</time>
      </trkpt>
      <trkpt lat="44.57785" lon="1.58032">
        <ele>368</ele>
        <time>2019-07-05T20:01:40Z</time>
      </trkpt>
      <trkpt lat="44.57785" lon="1.58039">
        <ele>367</ele>
        <time>2019-07-05T20:01:44Z</time>
      </trkpt>
      <trkpt lat="44.57785" lon="1.58065">
        <ele>366</ele>
        <time>2019-07-05T20:02:00Z</time>
      </trkpt>
      <trkpt lat="44.57783" lon="1.5809">
        <ele>365</ele>
        <time>2019-07-05T20:02:14Z</time>
      </trkpt>
      <trkpt lat="44.57784" lon="1.58104">
        <ele>364</ele>
        <time>2019-07-05T20:02:22Z</time>
      </trkpt>
      <trkpt lat="44.57785" lon="1.58137">
        <ele>363</ele>
        <time>2019-07-05T20:02:41Z</time>
      </trkpt>
      <trkpt lat="44.57791" lon="1.58156">
        <ele>360</ele>
        <time>2019-07-05T20:02:55Z</time>
      </trkpt>
      <trkpt lat="44.57803" lon="1.58173">
        <ele>359</ele>
        <time>2019-07-05T20:03:11Z</time>
      </trkpt>
      <trkpt lat="44.5781" lon="1.58184">
        <ele>360</ele>
        <time>2019-07-05T20:03:17Z</time>
      </trkpt>
      <trkpt lat="44.57824" lon="1.58202">
        <ele>362</ele>
        <time>2019-07-05T20:03:31Z</time>
      </trkpt>
      <trkpt lat="44.57831" lon="1.58218">
        <ele>361</ele>
        <time>2019-07-05T20:03:45Z</time>
      </trkpt>
      <trkpt lat="44.57844" lon="1.58242">
        <ele>361</ele>
        <time>2019-07-05T20:04:02Z</time>
      </trkpt>
      <trkpt lat="44.57858" lon="1.58258">
        <ele>359</ele>
        <time>2019-07-05T20:04:20Z</time>
      </trkpt>
      <trkpt lat="44.57872" lon="1.58272">
        <ele>354</ele>
        <time>2019-07-05T20:04:36Z</time>
      </trkpt>
      <trkpt lat="44.57882" lon="1.58292">
        <ele>355</ele>
        <time>2019-07-05T20:04:51Z</time>
      </trkpt>
      <trkpt lat="44.57902" lon="1.58296">
        <ele>353</ele>
        <time>2019-07-05T20:05:09Z</time>
      </trkpt>
      <trkpt lat="44.57925" lon="1.58298">
        <ele>352</ele>
        <time>2019-07-05T20:05:29Z</time>
      </trkpt>
      <trkpt lat="44.57944" lon="1.58298">
        <ele>351</ele>
        <time>2019-07-05T20:05:46Z</time>
      </trkpt>
      <trkpt lat="44.57968" lon="1.58296">
        <ele>352</ele>
        <time>2019-07-05T20:06:05Z</time>
      </trkpt>
      <trkpt lat="44.57985" lon="1.58291">
        <ele>351</ele>
        <time>2019-07-05T20:06:20Z</time>
      </trkpt>
      <trkpt lat="44.58002" lon="1.58282">
        <ele>348</ele>
        <time>2019-07-05T20:06:38Z</time>
      </trkpt>
      <trkpt lat="44.58021" lon="1.58279">
        <ele>348</ele>
        <time>2019-07-05T20:06:54Z</time>
      </trkpt>
      <trkpt lat="44.58036" lon="1.58282">
        <ele>348</ele>
        <time>2019-07-05T20:07:11Z</time>
      </trkpt>
      <trkpt lat="44.58049" lon="1.58282">
        <ele>347</ele>
        <time>2019-07-05T20:07:25Z</time>
      </trkpt>
      <trkpt lat="44.58067" lon="1.5828">
        <ele>346</ele>
        <time>2019-07-05T20:07:41Z</time>
      </trkpt>
      <trkpt lat="44.5808" lon="1.58277">
        <ele>344</ele>
        <time>2019-07-05T20:07:54Z</time>
      </trkpt>
      <trkpt lat="44.58099" lon="1.58278">
        <ele>346</ele>
        <time>2019-07-05T20:08:08Z</time>
      </trkpt>
      <trkpt lat="44.58116" lon="1.58274">
        <ele>344</ele>
        <time>2019-07-05T20:08:23Z</time>
      </trkpt>
      <trkpt lat="44.58133" lon="1.58272">
        <ele>342</ele>
        <time>2019-07-05T20:08:40Z</time>
      </trkpt>
      <trkpt lat="44.58152" lon="1.58271">
        <ele>339</ele>
        <time>2019-07-05T20:08:57Z</time>
      </trkpt>
      <trkpt lat="44.58169" lon="1.58272">
        <ele>338</ele>
        <time>2019-07-05T20:09:12Z</time>
      </trkpt>
      <trkpt lat="44.58184" lon="1.58273">
        <ele>339</ele>
        <time>2019-07-05T20:09:25Z</time>
      </trkpt>
      <trkpt lat="44.58195" lon="1.58274">
        <ele>337</ele>
        <time>2019-07-05T20:09:35Z</time>
      </trkpt>
      <trkpt lat="44.58216" lon="1.58273">
        <ele>335</ele>
        <time>2019-07-05T20:09:49Z</time>
      </trkpt>
      <trkpt lat="44.58241" lon="1.58282">
        <ele>336</ele>
        <time>2019-07-05T20:10:07Z</time>
      </trkpt>
      <trkpt lat="44.58253" lon="1.58285">
        <ele>337</ele>
        <time>2019-07-05T20:10:20Z</time>
      </trkpt>
      <trkpt lat="44.58272" lon="1.58275">
        <ele>338</ele>
        <time>2019-07-05T20:10:37Z</time>
      </trkpt>
      <trkpt lat="44.58274" lon="1.58263">
        <ele>344</ele>
        <time>2019-07-05T20:10:56Z</time>
      </trkpt>
      <trkpt lat="44.58279" lon="1.58256">
        <ele>344</ele>
        <time>2019-07-05T20:11:10Z</time>
      </trkpt>
      <trkpt lat="44.58292" lon="1.58243">
        <ele>343</ele>
        <time>2019-07-05T20:11:25Z</time>
      </trkpt>
      <trkpt lat="44.58294" lon="1.58241">
        <ele>343</ele>
        <time>2019-07-05T20:11:27Z</time>
      </trkpt>
      <trkpt lat="44.58293" lon="1.58233">
        <ele>341</ele>
        <time>2019-07-05T20:11:44Z</time>
      </trkpt>
      <trkpt lat="44.58294" lon="1.58233">
        <ele>341</ele>
        <time>2019-07-05T20:11:49Z</time>
      </trkpt>
      <trkpt lat="44.5831" lon="1.58228">
        <ele>339</ele>
        <time>2019-07-05T20:12:06Z</time>
      </trkpt>
      <trkpt lat="44.58326" lon="1.58226">
        <ele>336</ele>
        <time>2019-07-05T20:12:22Z</time>
      </trkpt>
      <trkpt lat="44.58346" lon="1.58228">
        <ele>332</ele>
        <time>2019-07-05T20:12:38Z</time>
      </trkpt>
      <trkpt lat="44.58365" lon="1.58227">
        <ele>328</ele>
        <time>2019-07-05T20:12:54Z</time>
      </trkpt>
      <trkpt lat="44.58386" lon="1.58228">
        <ele>330</ele>
        <time>2019-07-05T20:13:09Z</time>
      </trkpt>
      <trkpt lat="44.58402" lon="1.58234">
        <ele>334</ele>
        <time>2019-07-05T20:13:26Z</time>
      </trkpt>
      <trkpt lat="44.58408" lon="1.58233">
        <ele>337</ele>
        <time>2019-07-05T20:13:41Z</time>
      </trkpt>
      <trkpt lat="44.58413" lon="1.58232">
        <ele>336</ele>
        <time>2019-07-05T20:13:55Z</time>
      </trkpt>
      <trkpt lat="44.5842" lon="1.58234">
        <ele>335</ele>
        <time>2019-07-05T20:14:09Z</time>
      </trkpt>
      <trkpt lat="44.58418" lon="1.58233">
        <ele>334</ele>
        <time>2019-07-05T20:14:26Z</time>
      </trkpt>
      <trkpt lat="44.58414" lon="1.58232">
        <ele>337</ele>
        <time>2019-07-05T20:14:46Z</time>
      </trkpt>
      <trkpt lat="44.58427" lon="1.58242">
        <ele>337</ele>
        <time>2019-07-05T20:15:00Z</time>
      </trkpt>
      <trkpt lat="44.58443" lon="1.58248">
        <ele>339</ele>
        <time>2019-07-05T20:15:16Z</time>
      </trkpt>
      <trkpt lat="44.5846" lon="1.58248">
        <ele>343</ele>
        <time>2019-07-05T20:15:32Z</time>
      </trkpt>
      <trkpt lat="44.5847" lon="1.58247">
        <ele>344</ele>
        <time>2019-07-05T20:15:48Z</time>
      </trkpt>
      <trkpt lat="44.58481" lon="1.58238">
        <ele>347</ele>
        <time>2019-07-05T20:16:03Z</time>
      </trkpt>
      <trkpt lat="44.58492" lon="1.58229">
        <ele>352</ele>
        <time>2019-07-05T20:16:17Z</time>
      </trkpt>
      <trkpt lat="44.58497" lon="1.58224">
        <ele>351</ele>
        <time>2019-07-05T20:16:24Z</time>
      </trkpt>
      <trkpt lat="44.5851" lon="1.58215">
        <ele>352</ele>
        <time>2019-07-05T20:16:38Z</time>
      </trkpt>
      <trkpt lat="44.58523" lon="1.58203">
        <ele>352</ele>
        <time>2019-07-05T20:16:54Z</time>
      </trkpt>
      <trkpt lat="44.5853" lon="1.58191">
        <ele>356</ele>
        <time>2019-07-05T20:17:07Z</time>
      </trkpt>
      <trkpt lat="44.58541" lon="1.58181">
        <ele>356</ele>
        <time>2019-07-05T20:17:21Z</time>
      </trkpt>
      <trkpt lat="44.58548" lon="1.58163">
        <ele>358</ele>
        <time>2019-07-05T20:17:36Z</time>
      </trkpt>
      <trkpt lat="44.58554" lon="1.58151">
        <ele>358</ele>
        <time>2019-07-05T20:17:49Z</time>
      </trkpt>
      <trkpt lat="44.58564" lon="1.58135">
        <ele>359</ele>
        <time>2019-07-05T20:18:04Z</time>
      </trkpt>
      <trkpt lat="44.58576" lon="1.58121">
        <ele>362</ele>
        <time>2019-07-05T20:18:19Z</time>
      </trkpt>
      <trkpt lat="44.58584" lon="1.5811">
        <ele>359</ele>
        <time>2019-07-05T20:18:34Z</time>
      </trkpt>
      <trkpt lat="44.58593" lon="1.58097">
        <ele>360</ele>
        <time>2019-07-05T20:18:47Z</time>
      </trkpt>
      <trkpt lat="44.58602" lon="1.58081">
        <ele>357</ele>
        <time>2019-07-05T20:19:01Z</time>
      </trkpt>
      <trkpt lat="44.58615" lon="1.58061">
        <ele>358</ele>
        <time>2019-07-05T20:19:17Z</time>
      </trkpt>
      <trkpt lat="44.58629" lon="1.5804">
        <ele>358</ele>
        <time>2019-07-05T20:19:37Z</time>
      </trkpt>
      <trkpt lat="44.58643" lon="1.58021">
        <ele>356</ele>
        <time>2019-07-05T20:19:54Z</time>
      </trkpt>
      <trkpt lat="44.58658" lon="1.58001">
        <ele>354</ele>
        <time>2019-07-05T20:20:10Z</time>
      </trkpt>
      <trkpt lat="44.58676" lon="1.57988">
        <ele>353</ele>
        <time>2019-07-05T20:20:28Z</time>
      </trkpt>
      <trkpt lat="44.58686" lon="1.57985">
        <ele>352</ele>
        <time>2019-07-05T20:20:37Z</time>
      </trkpt>
      <trkpt lat="44.58701" lon="1.5798">
        <ele>351</ele>
        <time>2019-07-05T20:20:50Z</time>
      </trkpt>
      <trkpt lat="44.58722" lon="1.57978">
        <ele>353</ele>
        <time>2019-07-05T20:21:04Z</time>
      </trkpt>
      <trkpt lat="44.58739" lon="1.57974">
        <ele>355</ele>
        <time>2019-07-05T20:21:20Z</time>
      </trkpt>
      <trkpt lat="44.58757" lon="1.57975">
        <ele>357</ele>
        <time>2019-07-05T20:21:38Z</time>
      </trkpt>
      <trkpt lat="44.58781" lon="1.57981">
        <ele>362</ele>
        <time>2019-07-05T20:21:55Z</time>
      </trkpt>
      <trkpt lat="44.58786" lon="1.57982">
        <ele>362</ele>
        <time>2019-07-05T20:21:59Z</time>
      </trkpt>
      <trkpt lat="44.58804" lon="1.57985">
        <ele>362</ele>
        <time>2019-07-05T20:22:19Z</time>
      </trkpt>
      <trkpt lat="44.58823" lon="1.57983">
        <ele>362</ele>
        <time>2019-07-05T20:22:37Z</time>
      </trkpt>
      <trkpt lat="44.58824" lon="1.5799">
        <ele>361</ele>
        <time>2019-07-05T20:22:49Z</time>
      </trkpt>
      <trkpt lat="44.58823" lon="1.57991">
        <ele>360</ele>
        <time>2019-07-05T20:23:09Z</time>
      </trkpt>
      <trkpt lat="44.58829" lon="1.57986">
        <ele>360</ele>
        <time>2019-07-05T20:23:30Z</time>
      </trkpt>
      <trkpt lat="44.58833" lon="1.57982">
        <ele>365</ele>
        <time>2019-07-05T20:23:45Z</time>
      </trkpt>
      <trkpt lat="44.58834" lon="1.57983">
        <ele>366</ele>
        <time>2019-07-05T20:23:55Z</time>
      </trkpt>
      <trkpt lat="44.58837" lon="1.57982">
        <ele>367</ele>
        <time>2019-07-05T20:24:08Z</time>
      </trkpt>
      <trkpt lat="44.58843" lon="1.57984">
        <ele>367</ele>
        <time>2019-07-05T20:24:21Z</time>
      </trkpt>
      <trkpt lat="44.58842" lon="1.57984">
        <ele>367</ele>
        <time>2019-07-05T20:24:42Z</time>
      </trkpt>
      <trkpt lat="44.58843" lon="1.57983">
        <ele>368</ele>
        <time>2019-07-05T20:25:04Z</time>
      </trkpt>
      <trkpt lat="44.58846" lon="1.57985">
        <ele>369</ele>
        <time>2019-07-05T20:25:18Z</time>
      </trkpt>
      <trkpt lat="44.58847" lon="1.57985">
        <ele>367</ele>
        <time>2019-07-05T20:25:28Z</time>
      </trkpt>
      <trkpt lat="44.58866" lon="1.57997">
        <ele>369</ele>
        <time>2019-07-05T20:25:46Z</time>
      </trkpt>
      <trkpt lat="44.58887" lon="1.5801">
        <ele>368</ele>
        <time>2019-07-05T20:26:03Z</time>
      </trkpt>
      <trkpt lat="44.58901" lon="1.58029">
        <ele>366</ele>
        <time>2019-07-05T20:26:19Z</time>
      </trkpt>
      <trkpt lat="44.58919" lon="1.58062">
        <ele>367</ele>
        <time>2019-07-05T20:26:41Z</time>
      </trkpt>
      <trkpt lat="44.58924" lon="1.58068">
        <ele>367</ele>
        <time>2019-07-05T20:26:46Z</time>
      </trkpt>
      <trkpt lat="44.58939" lon="1.58091">
        <ele>369</ele>
        <time>2019-07-05T20:27:02Z</time>
      </trkpt>
      <trkpt lat="44.5896" lon="1.58115">
        <ele>367</ele>
        <time>2019-07-05T20:27:21Z</time>
      </trkpt>
      <trkpt lat="44.58979" lon="1.5813">
        <ele>366</ele>
        <time>2019-07-05T20:27:39Z</time>
      </trkpt>
      <trkpt lat="44.59002" lon="1.58148">
        <ele>367</ele>
        <time>2019-07-05T20:27:58Z</time>
      </trkpt>
      <trkpt lat="44.59018" lon="1.58165">
        <ele>370</ele>
        <time>2019-07-05T20:28:14Z</time>
      </trkpt>
      <trkpt lat="44.59023" lon="1.5817">
        <ele>371</ele>
        <time>2019-07-05T20:28:19Z</time>
      </trkpt>
      <trkpt lat="44.59038" lon="1.58179">
        <ele>370</ele>
        <time>2019-07-05T20:28:34Z</time>
      </trkpt>
      <trkpt lat="44.59055" lon="1.58182">
        <ele>371</ele>
        <time>2019-07-05T20:28:49Z</time>
      </trkpt>
      <trkpt lat="44.59078" lon="1.58185">
        <ele>370</ele>
        <time>2019-07-05T20:29:07Z</time>
      </trkpt>
      <trkpt lat="44.59096" lon="1.58189">
        <ele>369</ele>
        <time>2019-07-05T20:29:23Z</time>
      </trkpt>
      <trkpt lat="44.59112" lon="1.58195">
        <ele>368</ele>
        <time>2019-07-05T20:29:38Z</time>
      </trkpt>
      <trkpt lat="44.59128" lon="1.58201">
        <ele>366</ele>
        <time>2019-07-05T20:29:52Z</time>
      </trkpt>
      <trkpt lat="44.59146" lon="1.58217">
        <ele>364</ele>
        <time>2019-07-05T20:30:09Z</time>
      </trkpt>
      <trkpt lat="44.59156" lon="1.58231">
        <ele>363</ele>
        <time>2019-07-05T20:30:23Z</time>
      </trkpt>
      <trkpt lat="44.59172" lon="1.58238">
        <ele>362</ele>
        <time>2019-07-05T20:30:39Z</time>
      </trkpt>
      <trkpt lat="44.59184" lon="1.58234">
        <ele>361</ele>
        <time>2019-07-05T20:30:51Z</time>
      </trkpt>
      <trkpt lat="44.59202" lon="1.58226">
        <ele>359</ele>
        <time>2019-07-05T20:31:06Z</time>
      </trkpt>
      <trkpt lat="44.59214" lon="1.58216">
        <ele>358</ele>
        <time>2019-07-05T20:31:20Z</time>
      </trkpt>
      <trkpt lat="44.59244" lon="1.58207">
        <ele>364</ele>
        <time>2019-07-05T20:31:41Z</time>
      </trkpt>
      <trkpt lat="44.59252" lon="1.58211">
        <ele>362</ele>
        <time>2019-07-05T20:31:50Z</time>
      </trkpt>
      <trkpt lat="44.59273" lon="1.58221">
        <ele>357</ele>
        <time>2019-07-05T20:32:09Z</time>
      </trkpt>
      <trkpt lat="44.59293" lon="1.58224">
        <ele>358</ele>
        <time>2019-07-05T20:32:27Z</time>
      </trkpt>
      <trkpt lat="44.59309" lon="1.58223">
        <ele>360</ele>
        <time>2019-07-05T20:32:43Z</time>
      </trkpt>
      <trkpt lat="44.59319" lon="1.58223">
        <ele>360</ele>
        <time>2019-07-05T20:32:53Z</time>
      </trkpt>
      <trkpt lat="44.59341" lon="1.58234">
        <ele>362</ele>
        <time>2019-07-05T20:33:11Z</time>
      </trkpt>
      <trkpt lat="44.59358" lon="1.58243">
        <ele>364</ele>
        <time>2019-07-05T20:33:27Z</time>
      </trkpt>
      <trkpt lat="44.59368" lon="1.58259">
        <ele>363</ele>
        <time>2019-07-05T20:33:42Z</time>
      </trkpt>
      <trkpt lat="44.59384" lon="1.58268">
        <ele>363</ele>
        <time>2019-07-05T20:33:57Z</time>
      </trkpt>
      <trkpt lat="44.59388" lon="1.58267">
        <ele>368</ele>
        <time>2019-07-05T20:34:14Z</time>
      </trkpt>
      <trkpt lat="44.59389" lon="1.58266">
        <ele>371</ele>
        <time>2019-07-05T20:34:28Z</time>
      </trkpt>
      <trkpt lat="44.59394" lon="1.58263">
        <ele>367</ele>
        <time>2019-07-05T20:34:55Z</time>
      </trkpt>
      <trkpt lat="44.59393" lon="1.58267">
        <ele>371</ele>
        <time>2019-07-05T20:35:19Z</time>
      </trkpt>
      <trkpt lat="44.59392" lon="1.58268">
        <ele>372</ele>
        <time>2019-07-05T20:35:46Z</time>
      </trkpt>
    </trkseg>
  </trk>
</gpx>